Wetterdaten: Mittwoch, 15.10.2014
Datum Zeit Temp. Aussen +5cm Feuchte Auss Luftdruck Regen Sonnenschein Regendauer Solar Windben
15.10.2014 00:00 13,9 C 12,2 C 79 % 1007,1 hPa 0,0 l/m 0 min 0 min 0 W/m 14,6 km/h (3 Bft)
15.10.2014 00:02 13,9 C 12,2 C 79 % 1007,2 hPa 0,0 l/m 0 min 0 min 0 W/m 6,3 km/h (2 Bft)
15.10.2014 00:05 13,9 C 12,2 C 79 % 1007,2 hPa 0,0 l/m 0 min 0 min 0 W/m 12,6 km/h (3 Bft)
15.10.2014 00:06 13,9 C 12,2 C 79 % 1007,2 hPa 0,0 l/m 0 min 0 min 0 W/m 12,6 km/h (3 Bft)
15.10.2014 00:08 13,9 C 12,2 C 79 % 1007,2 hPa 0,0 l/m 0 min 0 min 0 W/m 12,6 km/h (3 Bft)
15.10.2014 00:10 13,9 C 12,2 C 79 % 1007,1 hPa 0,0 l/m 0 min 0 min 0 W/m 14,6 km/h (3 Bft)
15.10.2014 00:12 13,8 C 12,2 C 79 % 1007,2 hPa 0,0 l/m 0 min 0 min 0 W/m 12,6 km/h (3 Bft)
15.10.2014 00:14 13,8 C 12,2 C 79 % 1007,2 hPa 0,0 l/m 0 min 0 min 0 W/m 12,6 km/h (3 Bft)
15.10.2014 00:16 13,8 C 12,2 C 79 % 1007,1 hPa 0,0 l/m 0 min 0 min 0 W/m 16,7 km/h (3 Bft)
15.10.2014 00:18 13,8 C 12,2 C 79 % 1007,1 hPa 0,0 l/m 0 min 0 min 0 W/m 16,7 km/h (3 Bft)
15.10.2014 00:20 13,8 C 12,2 C 79 % 1007,1 hPa 0,0 l/m 0 min 0 min 0 W/m 8,4 km/h (2 Bft)
15.10.2014 00:22 13,8 C 12,2 C 79 % 1007,2 hPa 0,0 l/m 0 min 0 min 0 W/m 8,4 km/h (2 Bft)
15.10.2014 00:24 13,8 C 12,2 C 79 % 1007,1 hPa 0,0 l/m 0 min 0 min 0 W/m 10,5 km/h (2 Bft)
15.10.2014 00:26 13,8 C 12,2 C 79 % 1007,1 hPa 0,0 l/m 0 min 0 min 0 W/m 12,6 km/h (3 Bft)
15.10.2014 00:28 13,8 C 12,2 C 79 % 1007,1 hPa 0,0 l/m 0 min 0 min 0 W/m 16,7 km/h (3 Bft)
15.10.2014 00:30 13,8 C 12,2 C 79 % 1007,1 hPa 0,0 l/m 0 min 0 min 0 W/m 18,8 km/h (3 Bft)
15.10.2014 00:32 13,7 C 12,2 C 79 % 1007,1 hPa 0,0 l/m 0 min 0 min 0 W/m 14,6 km/h (3 Bft)
15.10.2014 00:34 13,7 C 12,2 C 80 % 1007,1 hPa 0,0 l/m 0 min 0 min 0 W/m 14,6 km/h (3 Bft)
15.10.2014 00:36 13,7 C 12,2 C 80 % 1007,1 hPa 0,0 l/m 0 min 0 min 0 W/m 14,6 km/h (3 Bft)
15.10.2014 00:38 13,7 C 12,2 C 80 % 1007,1 hPa 0,0 l/m 0 min 0 min 0 W/m 14,6 km/h (3 Bft)
15.10.2014 00:40 13,7 C 12,2 C 80 % 1007,1 hPa 0,0 l/m 0 min 0 min 0 W/m 18,8 km/h (3 Bft)
15.10.2014 00:42 13,7 C 12,2 C 80 % 1007,1 hPa 0,0 l/m 0 min 0 min 0 W/m 14,6 km/h (3 Bft)
15.10.2014 00:44 13,7 C 12,2 C 80 % 1007,2 hPa 0,0 l/m 0 min 0 min 0 W/m 12,6 km/h (3 Bft)
15.10.2014 00:46 13,7 C 12,2 C 80 % 1007,2 hPa 0,0 l/m 0 min 0 min 0 W/m 14,6 km/h (3 Bft)
15.10.2014 00:48 13,7 C 12,2 C 80 % 1007,1 hPa 0,0 l/m 0 min 0 min 0 W/m 10,5 km/h (2 Bft)
15.10.2014 00:50 13,7 C 12,2 C 80 % 1007,1 hPa 0,0 l/m 0 min 0 min 0 W/m 12,6 km/h (3 Bft)
15.10.2014 00:52 13,7 C 12,2 C 80 % 1007,1 hPa 0,0 l/m 0 min 0 min 0 W/m 10,5 km/h (2 Bft)
15.10.2014 00:54 13,7 C 12,2 C 80 % 1007,2 hPa 0,0 l/m 0 min 0 min 0 W/m 12,6 km/h (3 Bft)
15.10.2014 00:56 13,7 C 12,2 C 80 % 1007,1 hPa 0,0 l/m 0 min 0 min 0 W/m 16,7 km/h (3 Bft)
15.10.2014 00:58 13,7 C 12,2 C 81 % 1007,1 hPa 0,0 l/m 0 min 0 min 0 W/m 10,5 km/h (2 Bft)
15.10.2014 01:00 13,7 C 12,2 C 81 % 1007,1 hPa 0,0 l/m 0 min 0 min 0 W/m 14,6 km/h (3 Bft)
15.10.2014 01:02 13,7 C 12,2 C 81 % 1007,1 hPa 0,0 l/m 0 min 0 min 0 W/m 8,4 km/h (2 Bft)
15.10.2014 01:04 13,7 C 12,2 C 81 % 1007,1 hPa 0,0 l/m 0 min 0 min 0 W/m 14,6 km/h (3 Bft)
15.10.2014 01:06 13,7 C 12,2 C 81 % 1007,1 hPa 0,0 l/m 0 min 0 min 0 W/m 14,6 km/h (3 Bft)
15.10.2014 01:08 13,7 C 12,2 C 81 % 1007,0 hPa 0,0 l/m 0 min 0 min 0 W/m 14,6 km/h (3 Bft)
15.10.2014 01:10 13,7 C 12,2 C 81 % 1007,0 hPa 0,0 l/m 0 min 0 min 0 W/m 14,6 km/h (3 Bft)
15.10.2014 01:12 13,6 C 12,2 C 81 % 1007,0 hPa 0,0 l/m 0 min 0 min 0 W/m 12,6 km/h (3 Bft)
15.10.2014 01:14 13,7 C 12,2 C 81 % 1007,1 hPa 0,0 l/m 0 min 0 min 0 W/m 16,7 km/h (3 Bft)
15.10.2014 01:16 13,6 C 12,2 C 82 % 1007,0 hPa 0,0 l/m 0 min 0 min 0 W/m 10,5 km/h (2 Bft)
15.10.2014 01:18 13,6 C 12,2 C 82 % 1007,0 hPa 0,0 l/m 0 min 0 min 0 W/m 8,4 km/h (2 Bft)
15.10.2014 01:20 13,6 C 12,2 C 82 % 1006,9 hPa 0,0 l/m 0 min 0 min 0 W/m 12,6 km/h (3 Bft)
15.10.2014 01:22 13,6 C 12,2 C 82 % 1007,0 hPa 0,0 l/m 0 min 0 min 0 W/m 6,3 km/h (2 Bft)
15.10.2014 01:24 13,6 C 12,2 C 82 % 1007,0 hPa 0,0 l/m 0 min 0 min 0 W/m 12,6 km/h (3 Bft)
15.10.2014 01:26 13,6 C 12,2 C 82 % 1007,1 hPa 0,0 l/m 0 min 0 min 0 W/m 14,6 km/h (3 Bft)
15.10.2014 01:28 13,6 C 12,2 C 82 % 1007,1 hPa 0,0 l/m 0 min 0 min 0 W/m 10,5 km/h (2 Bft)
15.10.2014 01:30 13,6 C 12,2 C 82 % 1007,1 hPa 0,0 l/m 0 min 0 min 0 W/m 14,6 km/h (3 Bft)
15.10.2014 01:32 13,6 C 12,2 C 82 % 1007,2 hPa 0,0 l/m 0 min 0 min 0 W/m 10,5 km/h (2 Bft)
15.10.2014 01:34 13,6 C 12,2 C 82 % 1007,2 hPa 0,0 l/m 0 min 0 min 0 W/m 14,6 km/h (3 Bft)
15.10.2014 01:36 13,6 C 12,2 C 82 % 1007,2 hPa 0,0 l/m 0 min 0 min 0 W/m 12,6 km/h (3 Bft)
15.10.2014 01:38 13,6 C 12,2 C 82 % 1007,1 hPa 0,0 l/m 0 min 0 min 0 W/m 10,5 km/h (2 Bft)
15.10.2014 01:40 13,6 C 12,2 C 82 % 1007,2 hPa 0,0 l/m 0 min 0 min 0 W/m 12,6 km/h (3 Bft)
15.10.2014 01:42 13,6 C 12,2 C 82 % 1007,2 hPa 0,0 l/m 0 min 0 min 0 W/m 8,4 km/h (2 Bft)
15.10.2014 01:44 13,6 C 12,2 C 82 % 1007,2 hPa 0,0 l/m 0 min 0 min 0 W/m 8,4 km/h (2 Bft)
15.10.2014 01:46 13,6 C 12,2 C 82 % 1007,2 hPa 0,0 l/m 0 min 0 min 0 W/m 8,4 km/h (2 Bft)
15.10.2014 01:48 13,6 C 12,2 C 82 % 1007,2 hPa 0,0 l/m 0 min 0 min 0 W/m 12,6 km/h (3 Bft)
15.10.2014 01:50 13,6 C 12,2 C 83 % 1007,2 hPa 0,0 l/m 0 min 0 min 0 W/m 8,4 km/h (2 Bft)
15.10.2014 01:52 13,6 C 12,2 C 83 % 1007,2 hPa 0,0 l/m 0 min 0 min 0 W/m 14,6 km/h (3 Bft)
15.10.2014 01:54 13,5 C 12,2 C 82 % 1007,1 hPa 0,0 l/m 0 min 0 min 0 W/m 10,5 km/h (2 Bft)
15.10.2014 01:56 13,5 C 12,2 C 82 % 1007,1 hPa 0,0 l/m 0 min 0 min 0 W/m 14,6 km/h (3 Bft)
15.10.2014 01:58 13,5 C 12,2 C 82 % 1007,1 hPa 0,0 l/m 0 min 0 min 0 W/m 12,6 km/h (3 Bft)
15.10.2014 02:00 13,5 C 12,2 C 82 % 1007,2 hPa 0,0 l/m 0 min 0 min 0 W/m 10,5 km/h (2 Bft)
15.10.2014 02:02 13,5 C 12,2 C 82 % 1007,2 hPa 0,0 l/m 0 min 0 min 0 W/m 10,5 km/h (2 Bft)
15.10.2014 02:04 13,5 C 12,2 C 83 % 1007,2 hPa 0,0 l/m 0 min 0 min 0 W/m 8,4 km/h (2 Bft)
15.10.2014 02:06 13,4 C 12,2 C 83 % 1007,1 hPa 0,0 l/m 0 min 0 min 0 W/m 12,6 km/h (3 Bft)
15.10.2014 02:08 13,4 C 12,2 C 83 % 1007,1 hPa 0,0 l/m 0 min 0 min 0 W/m 14,6 km/h (3 Bft)
15.10.2014 02:10 13,4 C 12,2 C 83 % 1007,1 hPa 0,0 l/m 0 min 0 min 0 W/m 8,4 km/h (2 Bft)
15.10.2014 02:12 13,4 C 12,2 C 83 % 1007,1 hPa 0,0 l/m 0 min 0 min 0 W/m 8,4 km/h (2 Bft)
15.10.2014 02:14 13,4 C 12,2 C 83 % 1007,1 hPa 0,0 l/m 0 min 0 min 0 W/m 8,4 km/h (2 Bft)
15.10.2014 02:16 13,4 C 12,2 C 83 % 1007,1 hPa 0,0 l/m 0 min 0 min 0 W/m 10,5 km/h (2 Bft)
15.10.2014 02:18 13,4 C 12,2 C 83 % 1007,1 hPa 0,0 l/m 0 min 0 min 0 W/m 12,6 km/h (3 Bft)
15.10.2014 02:20 13,4 C 12,2 C 83 % 1007,1 hPa 0,0 l/m 0 min 0 min 0 W/m 10,5 km/h (2 Bft)
15.10.2014 02:22 13,4 C 12,2 C 83 % 1007,1 hPa 0,0 l/m 0 min 0 min 0 W/m 8,4 km/h (2 Bft)
15.10.2014 02:24 13,4 C 12,2 C 83 % 1007,1 hPa 0,0 l/m 0 min 0 min 0 W/m 14,6 km/h (3 Bft)
15.10.2014 02:26 13,4 C 12,2 C 83 % 1007,1 hPa 0,0 l/m 0 min 0 min 0 W/m 14,6 km/h (3 Bft)
15.10.2014 02:28 13,4 C 12,2 C 83 % 1007,1 hPa 0,0 l/m 0 min 0 min 0 W/m 12,6 km/h (3 Bft)
15.10.2014 02:30 13,4 C 12,2 C 83 % 1007,0 hPa 0,0 l/m 0 min 0 min 0 W/m 12,6 km/h (3 Bft)
15.10.2014 02:32 13,4 C 12,2 C 83 % 1007,1 hPa 0,0 l/m 0 min 0 min 0 W/m 12,6 km/h (3 Bft)
15.10.2014 02:34 13,4 C 12,2 C 83 % 1007,1 hPa 0,0 l/m 0 min 0 min 0 W/m 8,4 km/h (2 Bft)
15.10.2014 02:36 13,4 C 12,2 C 83 % 1007,1 hPa 0,0 l/m 0 min 0 min 0 W/m 12,6 km/h (3 Bft)
15.10.2014 02:38 13,4 C 12,2 C 83 % 1007,1 hPa 0,0 l/m 0 min 0 min 0 W/m 10,5 km/h (2 Bft)
15.10.2014 02:40 13,4 C 12,2 C 83 % 1007,0 hPa 0,0 l/m 0 min 0 min 0 W/m 8,4 km/h (2 Bft)
15.10.2014 02:42 13,3 C 12,2 C 83 % 1007,1 hPa 0,0 l/m 0 min 0 min 0 W/m 10,5 km/h (2 Bft)
15.10.2014 02:44 13,3 C 12,2 C 83 % 1007,0 hPa 0,0 l/m 0 min 0 min 0 W/m 10,5 km/h (2 Bft)
15.10.2014 02:46 13,3 C 12,2 C 84 % 1007,0 hPa 0,0 l/m 0 min 0 min 0 W/m 12,6 km/h (3 Bft)
15.10.2014 02:48 13,3 C 11,7 C 84 % 1007,0 hPa 0,0 l/m 0 min 0 min 0 W/m 8,4 km/h (2 Bft)
15.10.2014 02:50 13,3 C 11,7 C 84 % 1007,0 hPa 0,0 l/m 0 min 0 min 0 W/m 18,8 km/h (3 Bft)
15.10.2014 02:52 13,3 C 11,7 C 84 % 1007,0 hPa 0,0 l/m 0 min 0 min 0 W/m 12,6 km/h (3 Bft)
15.10.2014 02:54 13,3 C 11,7 C 84 % 1007,0 hPa 0,0 l/m 0 min 0 min 0 W/m 12,6 km/h (3 Bft)
15.10.2014 02:56 13,3 C 11,7 C 84 % 1006,9 hPa 0,0 l/m 0 min 0 min 0 W/m 10,5 km/h (2 Bft)
15.10.2014 02:58 13,3 C 12,2 C 84 % 1006,9 hPa 0,0 l/m 0 min 0 min 0 W/m 12,6 km/h (3 Bft)
15.10.2014 03:00 13,3 C 12,2 C 84 % 1006,9 hPa 0,0 l/m 0 min 0 min 0 W/m 12,6 km/h (3 Bft)
15.10.2014 03:02 13,3 C 12,2 C 84 % 1006,9 hPa 0,0 l/m 0 min 0 min 0 W/m 10,5 km/h (2 Bft)
15.10.2014 03:04 13,3 C 12,2 C 84 % 1006,9 hPa 0,0 l/m 0 min 0 min 0 W/m 16,7 km/h (3 Bft)
15.10.2014 03:06 13,3 C 12,2 C 84 % 1006,9 hPa 0,0 l/m 0 min 0 min 0 W/m 18,8 km/h (3 Bft)
15.10.2014 03:08 13,3 C 12,2 C 84 % 1006,9 hPa 0,0 l/m 0 min 0 min 0 W/m 12,6 km/h (3 Bft)
15.10.2014 03:10 13,3 C 12,2 C 84 % 1006,9 hPa 0,0 l/m 0 min 0 min 0 W/m 12,6 km/h (3 Bft)
15.10.2014 03:12 13,3 C 11,7 C 84 % 1007,0 hPa 0,0 l/m 0 min 0 min 0 W/m 16,7 km/h (3 Bft)
15.10.2014 03:14 13,3 C 11,7 C 84 % 1007,0 hPa 0,0 l/m 0 min 0 min 0 W/m 12,6 km/h (3 Bft)
15.10.2014 03:16 13,3 C 11,7 C 85 % 1006,9 hPa 0,0 l/m 0 min 0 min 0 W/m 14,6 km/h (3 Bft)
15.10.2014 03:18 13,3 C 12,2 C 85 % 1006,9 hPa 0,0 l/m 0 min 0 min 0 W/m 14,6 km/h (3 Bft)
15.10.2014 03:20 13,3 C 11,7 C 85 % 1006,9 hPa 0,0 l/m 0 min 0 min 0 W/m 14,6 km/h (3 Bft)
15.10.2014 03:22 13,2 C 11,7 C 85 % 1006,9 hPa 0,0 l/m 0 min 0 min 0 W/m 12,6 km/h (3 Bft)
15.10.2014 03:24 13,2 C 12,2 C 85 % 1006,9 hPa 0,0 l/m 0 min 0 min 0 W/m 14,6 km/h (3 Bft)
15.10.2014 03:26 13,2 C 12,2 C 85 % 1006,9 hPa 0,0 l/m 0 min 0 min 0 W/m 14,6 km/h (3 Bft)
15.10.2014 03:28 13,2 C 12,2 C 85 % 1006,9 hPa 0,0 l/m 0 min 0 min 0 W/m 12,6 km/h (3 Bft)
15.10.2014 03:30 13,2 C 11,7 C 85 % 1006,8 hPa 0,0 l/m 0 min 0 min 0 W/m 12,6 km/h (3 Bft)
15.10.2014 03:32 13,2 C 11,7 C 85 % 1006,8 hPa 0,0 l/m 0 min 0 min 0 W/m 10,5 km/h (2 Bft)
15.10.2014 03:34 13,2 C 11,7 C 85 % 1006,9 hPa 0,0 l/m 0 min 0 min 0 W/m 16,7 km/h (3 Bft)
15.10.2014 03:36 13,2 C 11,7 C 85 % 1006,8 hPa 0,0 l/m 0 min 0 min 0 W/m 12,6 km/h (3 Bft)
15.10.2014 03:38 13,2 C 11,7 C 85 % 1006,8 hPa 0,0 l/m 0 min 0 min 0 W/m 14,6 km/h (3 Bft)
15.10.2014 03:40 13,2 C 11,7 C 85 % 1006,8 hPa 0,0 l/m 0 min 0 min 0 W/m 16,7 km/h (3 Bft)
15.10.2014 03:42 13,2 C 11,7 C 85 % 1006,9 hPa 0,0 l/m 0 min 0 min 0 W/m 16,7 km/h (3 Bft)
15.10.2014 03:44 13,2 C 11,7 C 85 % 1006,8 hPa 0,0 l/m 0 min 0 min 0 W/m 20,9 km/h (4 Bft)
15.10.2014 03:46 13,2 C 11,7 C 86 % 1006,8 hPa 0,0 l/m 0 min 0 min 0 W/m 12,6 km/h (3 Bft)
15.10.2014 03:48 13,2 C 11,7 C 86 % 1006,8 hPa 0,0 l/m 0 min 0 min 0 W/m 16,7 km/h (3 Bft)
15.10.2014 03:50 13,2 C 11,7 C 86 % 1006,9 hPa 0,0 l/m 0 min 0 min 0 W/m 14,6 km/h (3 Bft)
15.10.2014 03:52 13,2 C 11,7 C 86 % 1006,8 hPa 0,0 l/m 0 min 0 min 0 W/m 14,6 km/h (3 Bft)
15.10.2014 03:54 13,2 C 11,7 C 86 % 1006,8 hPa 0,0 l/m 0 min 0 min 0 W/m 14,6 km/h (3 Bft)
15.10.2014 03:56 13,2 C 11,7 C 86 % 1006,8 hPa 0,0 l/m 0 min 0 min 0 W/m 23,0 km/h (4 Bft)
15.10.2014 03:58 13,2 C 11,7 C 86 % 1006,7 hPa 0,0 l/m 0 min 0 min 0 W/m 20,9 km/h (4 Bft)
15.10.2014 04:00 13,2 C 11,7 C 86 % 1006,7 hPa 0,0 l/m 0 min 0 min 0 W/m 14,6 km/h (3 Bft)
15.10.2014 04:02 13,2 C 11,7 C 86 % 1006,7 hPa 0,0 l/m 0 min 0 min 0 W/m 16,7 km/h (3 Bft)
15.10.2014 04:04 13,1 C 11,7 C 85 % 1006,7 hPa 0,0 l/m 0 min 0 min 0 W/m 12,6 km/h (3 Bft)
15.10.2014 04:06 13,1 C 11,7 C 85 % 1006,7 hPa 0,0 l/m 0 min 0 min 0 W/m 18,8 km/h (3 Bft)
15.10.2014 04:08 13,1 C 11,7 C 85 % 1006,7 hPa 0,0 l/m 0 min 0 min 0 W/m 18,8 km/h (3 Bft)
15.10.2014 04:10 13,1 C 11,7 C 85 % 1006,8 hPa 0,0 l/m 0 min 0 min 0 W/m 12,6 km/h (3 Bft)
15.10.2014 04:12 13,1 C 11,7 C 85 % 1006,7 hPa 0,0 l/m 0 min 0 min 0 W/m 12,6 km/h (3 Bft)
15.10.2014 04:14 13,1 C 11,7 C 85 % 1006,7 hPa 0,0 l/m 0 min 0 min 0 W/m 16,7 km/h (3 Bft)
15.10.2014 04:16 13,1 C 11,7 C 85 % 1006,7 hPa 0,0 l/m 0 min 0 min 0 W/m 18,8 km/h (3 Bft)
15.10.2014 04:18 13,0 C 11,7 C 85 % 1006,7 hPa 0,0 l/m 0 min 0 min 0 W/m 14,6 km/h (3 Bft)
15.10.2014 04:20 13,0 C 11,7 C 85 % 1006,7 hPa 0,0 l/m 0 min 0 min 0 W/m 14,6 km/h (3 Bft)
15.10.2014 04:22 13,0 C 11,7 C 85 % 1006,8 hPa 0,0 l/m 0 min 0 min 0 W/m 10,5 km/h (2 Bft)
15.10.2014 04:24 13,0 C 11,7 C 85 % 1006,7 hPa 0,0 l/m 0 min 0 min 0 W/m 16,7 km/h (3 Bft)
15.10.2014 04:26 12,9 C 11,7 C 85 % 1006,8 hPa 0,0 l/m 0 min 0 min 0 W/m 16,7 km/h (3 Bft)
15.10.2014 04:28 12,9 C 11,7 C 85 % 1006,7 hPa 0,0 l/m 0 min 0 min 0 W/m 12,6 km/h (3 Bft)
15.10.2014 04:30 12,9 C 11,7 C 85 % 1006,8 hPa 0,0 l/m 0 min 0 min 0 W/m 12,6 km/h (3 Bft)
15.10.2014 04:32 12,9 C 11,7 C 85 % 1006,7 hPa 0,0 l/m 0 min 0 min 0 W/m 12,6 km/h (3 Bft)
15.10.2014 04:34 12,9 C 11,7 C 85 % 1006,7 hPa 0,0 l/m 0 min 0 min 0 W/m 12,6 km/h (3 Bft)
15.10.2014 04:36 12,9 C 11,7 C 85 % 1006,7 hPa 0,0 l/m 0 min 0 min 0 W/m 14,6 km/h (3 Bft)
15.10.2014 04:38 12,9 C 11,7 C 85 % 1006,7 hPa 0,0 l/m 0 min 0 min 0 W/m 12,6 km/h (3 Bft)
15.10.2014 04:40 12,8 C 11,7 C 85 % 1006,7 hPa 0,0 l/m 0 min 0 min 0 W/m 14,6 km/h (3 Bft)
15.10.2014 04:42 12,8 C 11,7 C 85 % 1006,6 hPa 0,0 l/m 0 min 0 min 0 W/m 14,6 km/h (3 Bft)
15.10.2014 04:44 12,8 C 11,7 C 85 % 1006,6 hPa 0,0 l/m 0 min 0 min 0 W/m 14,6 km/h (3 Bft)
15.10.2014 04:46 12,8 C 11,7 C 85 % 1006,6 hPa 0,0 l/m 0 min 0 min 0 W/m 10,5 km/h (2 Bft)
15.10.2014 04:48 12,8 C 11,7 C 85 % 1006,6 hPa 0,0 l/m 0 min 0 min 0 W/m 12,6 km/h (3 Bft)
15.10.2014 04:50 12,8 C 11,7 C 85 % 1006,6 hPa 0,0 l/m 0 min 0 min 0 W/m 14,6 km/h (3 Bft)
15.10.2014 04:52 12,8 C 11,7 C 85 % 1006,7 hPa 0,0 l/m 0 min 0 min 0 W/m 10,5 km/h (2 Bft)
15.10.2014 04:54 12,7 C 11,7 C 85 % 1006,6 hPa 0,0 l/m 0 min 0 min 0 W/m 12,6 km/h (3 Bft)
15.10.2014 04:56 12,7 C 11,7 C 85 % 1006,6 hPa 0,0 l/m 0 min 0 min 0 W/m 16,7 km/h (3 Bft)
15.10.2014 04:58 12,7 C 11,7 C 85 % 1006,6 hPa 0,0 l/m 0 min 0 min 0 W/m 20,9 km/h (4 Bft)
15.10.2014 05:00 12,7 C 11,7 C 85 % 1006,6 hPa 0,0 l/m 0 min 0 min 0 W/m 10,5 km/h (2 Bft)
15.10.2014 05:02 12,7 C 11,7 C 86 % 1006,6 hPa 0,0 l/m 0 min 0 min 0 W/m 16,7 km/h (3 Bft)
15.10.2014 05:04 12,7 C 11,7 C 85 % 1006,6 hPa 0,0 l/m 0 min 0 min 0 W/m 12,6 km/h (3 Bft)
15.10.2014 05:06 12,7 C 11,7 C 85 % 1006,6 hPa 0,0 l/m 0 min 0 min 0 W/m 14,6 km/h (3 Bft)
15.10.2014 05:08 12,6 C 11,1 C 85 % 1006,6 hPa 0,0 l/m 0 min 0 min 0 W/m 12,6 km/h (3 Bft)
15.10.2014 05:10 12,6 C 11,1 C 85 % 1006,6 hPa 0,0 l/m 0 min 0 min 0 W/m 12,6 km/h (3 Bft)
15.10.2014 05:12 12,6 C 11,1 C 86 % 1006,7 hPa 0,0 l/m 0 min 0 min 0 W/m 14,6 km/h (3 Bft)
15.10.2014 05:14 12,6 C 11,1 C 86 % 1006,7 hPa 0,0 l/m 0 min 0 min 0 W/m 10,5 km/h (2 Bft)
15.10.2014 05:16 12,6 C 11,1 C 86 % 1006,6 hPa 0,0 l/m 0 min 0 min 0 W/m 10,5 km/h (2 Bft)
15.10.2014 05:18 12,6 C 11,1 C 86 % 1006,6 hPa 0,0 l/m 0 min 0 min 0 W/m 16,7 km/h (3 Bft)
15.10.2014 05:20 12,6 C 11,1 C 86 % 1006,7 hPa 0,0 l/m 0 min 0 min 0 W/m 10,5 km/h (2 Bft)
15.10.2014 05:22 12,6 C 11,1 C 86 % 1006,6 hPa 0,0 l/m 0 min 0 min 0 W/m 6,3 km/h (2 Bft)
15.10.2014 05:24 12,6 C 11,1 C 86 % 1006,6 hPa 0,0 l/m 0 min 0 min 0 W/m 16,7 km/h (3 Bft)
15.10.2014 05:26 12,6 C 11,1 C 86 % 1006,7 hPa 0,0 l/m 0 min 0 min 0 W/m 14,6 km/h (3 Bft)
15.10.2014 05:28 12,5 C 11,1 C 86 % 1006,7 hPa 0,0 l/m 0 min 0 min 0 W/m 10,5 km/h (2 Bft)
15.10.2014 05:30 12,5 C 11,1 C 86 % 1006,7 hPa 0,0 l/m 0 min 0 min 0 W/m 12,6 km/h (3 Bft)
15.10.2014 05:32 12,5 C 11,1 C 86 % 1006,7 hPa 0,0 l/m 0 min 0 min 0 W/m 12,6 km/h (3 Bft)
15.10.2014 05:34 12,5 C 11,1 C 86 % 1006,6 hPa 0,0 l/m 0 min 0 min 0 W/m 18,8 km/h (3 Bft)
15.10.2014 05:36 12,4 C 11,1 C 86 % 1006,7 hPa 0,0 l/m 0 min 0 min 0 W/m 14,6 km/h (3 Bft)
15.10.2014 05:38 12,4 C 11,1 C 86 % 1006,7 hPa 0,0 l/m 0 min 0 min 0 W/m 16,7 km/h (3 Bft)
15.10.2014 05:40 12,4 C 11,1 C 86 % 1006,6 hPa 0,0 l/m 0 min 0 min 0 W/m 12,6 km/h (3 Bft)
15.10.2014 05:42 12,4 C 11,1 C 86 % 1006,7 hPa 0,0 l/m 0 min 0 min 0 W/m 10,5 km/h (2 Bft)
15.10.2014 05:44 12,4 C 11,1 C 86 % 1006,7 hPa 0,0 l/m 0 min 0 min 0 W/m 8,4 km/h (2 Bft)
15.10.2014 05:46 12,4 C 11,1 C 86 % 1006,6 hPa 0,0 l/m 0 min 0 min 0 W/m 12,6 km/h (3 Bft)
15.10.2014 05:48 12,4 C 11,1 C 87 % 1006,7 hPa 0,0 l/m 0 min 0 min 0 W/m 18,8 km/h (3 Bft)
15.10.2014 05:50 12,4 C 11,1 C 87 % 1006,6 hPa 0,0 l/m 0 min 0 min 0 W/m 12,6 km/h (3 Bft)
15.10.2014 05:52 12,4 C 11,1 C 87 % 1006,6 hPa 0,0 l/m 0 min 0 min 0 W/m 14,6 km/h (3 Bft)
15.10.2014 05:54 12,3 C 11,1 C 87 % 1006,6 hPa 0,0 l/m 0 min 0 min 0 W/m 10,5 km/h (2 Bft)
15.10.2014 05:56 12,3 C 11,1 C 87 % 1006,6 hPa 0,0 l/m 0 min 0 min 0 W/m 12,6 km/h (3 Bft)
15.10.2014 05:58 12,3 C 11,1 C 87 % 1006,6 hPa 0,0 l/m 0 min 0 min 0 W/m 14,6 km/h (3 Bft)
15.10.2014 06:00 12,3 C 11,1 C 87 % 1006,7 hPa 0,0 l/m 0 min 0 min 0 W/m 12,6 km/h (3 Bft)
15.10.2014 06:02 12,3 C 11,1 C 87 % 1006,6 hPa 0,0 l/m 0 min 0 min 0 W/m 10,5 km/h (2 Bft)
15.10.2014 06:06 12,3 C 11,1 C 87 % 1006,6 hPa 0,0 l/m 0 min 0 min 0 W/m 14,6 km/h (3 Bft)
15.10.2014 06:08 12,3 C 11,1 C 87 % 1006,5 hPa 0,0 l/m 0 min 0 min 0 W/m 10,5 km/h (2 Bft)
15.10.2014 06:10 12,3 C 11,1 C 87 % 1006,6 hPa 0,0 l/m 0 min 0 min 0 W/m 14,6 km/h (3 Bft)
15.10.2014 06:12 12,2 C 11,1 C 87 % 1006,5 hPa 0,0 l/m 0 min 0 min 0 W/m 10,5 km/h (2 Bft)
15.10.2014 06:14 12,2 C 11,1 C 88 % 1006,6 hPa 0,0 l/m 0 min 0 min 0 W/m 16,7 km/h (3 Bft)
15.10.2014 06:16 12,2 C 11,1 C 88 % 1006,5 hPa 0,0 l/m 0 min 0 min 0 W/m 14,6 km/h (3 Bft)
15.10.2014 06:18 12,2 C 11,1 C 88 % 1006,5 hPa 0,0 l/m 0 min 0 min 0 W/m 20,9 km/h (4 Bft)
15.10.2014 06:20 12,2 C 11,1 C 88 % 1006,5 hPa 0,0 l/m 0 min 0 min 0 W/m 16,7 km/h (3 Bft)
15.10.2014 06:22 12,2 C 11,1 C 88 % 1006,4 hPa 0,0 l/m 0 min 0 min 0 W/m 14,6 km/h (3 Bft)
15.10.2014 06:24 12,2 C 11,1 C 88 % 1006,4 hPa 0,0 l/m 0 min 0 min 0 W/m 16,7 km/h (3 Bft)
15.10.2014 06:26 12,2 C 11,1 C 88 % 1006,4 hPa 0,0 l/m 0 min 0 min 0 W/m 20,9 km/h (4 Bft)
15.10.2014 06:28 12,2 C 11,1 C 88 % 1006,3 hPa 0,0 l/m 0 min 0 min 0 W/m 14,6 km/h (3 Bft)
15.10.2014 06:30 12,2 C 11,1 C 88 % 1006,3 hPa 0,0 l/m 0 min 0 min 0 W/m 18,8 km/h (3 Bft)
15.10.2014 06:32 12,2 C 11,1 C 88 % 1006,3 hPa 0,0 l/m 0 min 0 min 0 W/m 14,6 km/h (3 Bft)
15.10.2014 06:34 12,2 C 11,1 C 88 % 1006,3 hPa 0,0 l/m 0 min 0 min 0 W/m 12,6 km/h (3 Bft)
15.10.2014 06:36 12,2 C 11,1 C 88 % 1006,3 hPa 0,0 l/m 0 min 0 min 0 W/m 16,7 km/h (3 Bft)
15.10.2014 06:38 12,2 C 11,1 C 88 % 1006,3 hPa 0,0 l/m 0 min 0 min 0 W/m 12,6 km/h (3 Bft)
15.10.2014 06:40 12,2 C 11,1 C 88 % 1006,4 hPa 0,0 l/m 0 min 0 min 0 W/m 14,6 km/h (3 Bft)
15.10.2014 06:42 12,2 C 11,1 C 88 % 1006,4 hPa 0,0 l/m 0 min 0 min 0 W/m 14,6 km/h (3 Bft)
15.10.2014 06:44 12,2 C 10,6 C 88 % 1006,4 hPa 0,0 l/m 0 min 0 min 0 W/m 10,5 km/h (2 Bft)
15.10.2014 06:46 12,1 C 10,6 C 88 % 1006,4 hPa 0,0 l/m 0 min 0 min 0 W/m 20,9 km/h (4 Bft)
15.10.2014 06:48 12,1 C 10,6 C 88 % 1006,5 hPa 0,0 l/m 0 min 0 min 0 W/m 16,7 km/h (3 Bft)
15.10.2014 06:50 12,1 C 10,6 C 88 % 1006,4 hPa 0,0 l/m 0 min 0 min 0 W/m 16,7 km/h (3 Bft)
15.10.2014 06:52 12,1 C 10,6 C 88 % 1006,4 hPa 0,0 l/m 0 min 0 min 0 W/m 16,7 km/h (3 Bft)
15.10.2014 06:54 12,1 C 10,6 C 88 % 1006,5 hPa 0,0 l/m 0 min 0 min 0 W/m 14,6 km/h (3 Bft)
15.10.2014 06:56 12,0 C 10,6 C 88 % 1006,5 hPa 0,0 l/m 0 min 0 min 0 W/m 12,6 km/h (3 Bft)
15.10.2014 06:58 12,1 C 10,6 C 88 % 1006,5 hPa 0,0 l/m 0 min 0 min 0 W/m 14,6 km/h (3 Bft)
15.10.2014 07:00 12,0 C 10,6 C 88 % 1006,5 hPa 0,0 l/m 0 min 0 min 0 W/m 12,6 km/h (3 Bft)
15.10.2014 07:02 12,0 C 10,6 C 88 % 1006,5 hPa 0,0 l/m 0 min 0 min 0 W/m 10,5 km/h (2 Bft)
15.10.2014 07:04 12,0 C 10,6 C 88 % 1006,4 hPa 0,0 l/m 0 min 0 min 0 W/m 10,5 km/h (2 Bft)
15.10.2014 07:06 12,0 C 10,6 C 88 % 1006,4 hPa 0,0 l/m 0 min 0 min 0 W/m 10,5 km/h (2 Bft)
15.10.2014 07:08 12,0 C 10,6 C 88 % 1006,3 hPa 0,0 l/m 0 min 0 min 0 W/m 10,5 km/h (2 Bft)
15.10.2014 07:10 11,9 C 10,6 C 88 % 1006,4 hPa 0,0 l/m 0 min 0 min 0 W/m 12,6 km/h (3 Bft)
15.10.2014 07:12 11,9 C 10,6 C 89 % 1006,3 hPa 0,0 l/m 0 min 0 min 0 W/m 12,6 km/h (3 Bft)
15.10.2014 07:14 11,9 C 10,6 C 88 % 1006,3 hPa 0,0 l/m 0 min 0 min 0 W/m 10,5 km/h (2 Bft)
15.10.2014 07:16 11,9 C 10,6 C 88 % 1006,4 hPa 0,0 l/m 0 min 0 min 0 W/m 12,6 km/h (3 Bft)
15.10.2014 07:18 11,9 C 10,6 C 88 % 1006,4 hPa 0,0 l/m 0 min 0 min 0 W/m 8,4 km/h (2 Bft)
15.10.2014 07:20 11,9 C 10,6 C 89 % 1006,4 hPa 0,0 l/m 0 min 0 min 0 W/m 10,5 km/h (2 Bft)
15.10.2014 07:22 11,9 C 10,6 C 89 % 1006,3 hPa 0,0 l/m 0 min 0 min 0 W/m 10,5 km/h (2 Bft)
15.10.2014 07:24 11,9 C 10,6 C 89 % 1006,4 hPa 0,0 l/m 0 min 0 min 0 W/m 10,5 km/h (2 Bft)
15.10.2014 07:26 11,9 C 10,6 C 89 % 1006,4 hPa 0,0 l/m 0 min 0 min 0 W/m 10,5 km/h (2 Bft)
15.10.2014 07:28 11,9 C 10,6 C 89 % 1006,4 hPa 0,0 l/m 0 min 0 min 0 W/m 16,7 km/h (3 Bft)
15.10.2014 07:30 11,9 C 10,6 C 89 % 1006,4 hPa 0,0 l/m 0 min 0 min 0 W/m 12,6 km/h (3 Bft)
15.10.2014 07:32 11,8 C 10,6 C 89 % 1006,5 hPa 0,0 l/m 0 min 0 min 0 W/m 14,6 km/h (3 Bft)
15.10.2014 07:34 11,9 C 10,6 C 89 % 1006,4 hPa 0,0 l/m 0 min 0 min 0 W/m 12,6 km/h (3 Bft)
15.10.2014 07:36 11,9 C 10,6 C 89 % 1006,4 hPa 0,0 l/m 0 min 0 min 0 W/m 12,6 km/h (3 Bft)
15.10.2014 07:38 11,8 C 10,6 C 89 % 1006,4 hPa 0,0 l/m 0 min 0 min 0 W/m 12,6 km/h (3 Bft)
15.10.2014 07:40 11,9 C 10,6 C 89 % 1006,4 hPa 0,0 l/m 0 min 0 min 0 W/m 12,6 km/h (3 Bft)
15.10.2014 07:42 11,8 C 10,6 C 89 % 1006,4 hPa 0,0 l/m 0 min 0 min 0 W/m 8,4 km/h (2 Bft)
15.10.2014 07:44 11,8 C 10,6 C 89 % 1006,3 hPa 0,0 l/m 0 min 0 min 0 W/m 10,5 km/h (2 Bft)
15.10.2014 07:46 11,8 C 10,6 C 89 % 1006,4 hPa 0,0 l/m 0 min 0 min 0 W/m 12,6 km/h (3 Bft)
15.10.2014 07:48 11,8 C 10,6 C 89 % 1006,3 hPa 0,0 l/m 0 min 0 min 0 W/m 18,8 km/h (3 Bft)
15.10.2014 07:50 11,8 C 10,6 C 89 % 1006,4 hPa 0,0 l/m 0 min 0 min 0 W/m 12,6 km/h (3 Bft)
15.10.2014 07:52 11,8 C 10,6 C 89 % 1006,3 hPa 0,0 l/m 0 min 0 min 0 W/m 14,6 km/h (3 Bft)
15.10.2014 07:54 11,8 C 10,6 C 89 % 1006,4 hPa 0,0 l/m 0 min 0 min 0 W/m 12,6 km/h (3 Bft)
15.10.2014 07:56 11,8 C 10,6 C 89 % 1006,3 hPa 0,0 l/m 0 min 0 min 3 W/m 10,5 km/h (2 Bft)
15.10.2014 07:58 11,8 C 10,6 C 89 % 1006,4 hPa 0,0 l/m 0 min 0 min 5 W/m 12,6 km/h (3 Bft)
15.10.2014 08:00 11,7 C 10,6 C 90 % 1006,3 hPa 0,0 l/m 0 min 0 min 6 W/m 12,6 km/h (3 Bft)
15.10.2014 08:02 11,7 C 10,6 C 90 % 1006,3 hPa 0,0 l/m 0 min 0 min 7 W/m 12,6 km/h (3 Bft)
15.10.2014 08:04 11,7 C 10,6 C 89 % 1006,3 hPa 0,0 l/m 0 min 0 min 7 W/m 10,5 km/h (2 Bft)
15.10.2014 08:06 11,7 C 10,6 C 89 % 1006,2 hPa 0,0 l/m 0 min 0 min 7 W/m 8,4 km/h (2 Bft)
15.10.2014 08:08 11,7 C 10,6 C 89 % 1006,2 hPa 0,0 l/m 0 min 0 min 9 W/m 8,4 km/h (2 Bft)
15.10.2014 08:10 11,7 C 10,6 C 89 % 1006,2 hPa 0,0 l/m 0 min 0 min 9 W/m 10,5 km/h (2 Bft)
15.10.2014 08:12 11,7 C 10,6 C 89 % 1006,2 hPa 0,0 l/m 0 min 0 min 11 W/m 6,3 km/h (2 Bft)
15.10.2014 08:14 11,7 C 10,6 C 89 % 1006,2 hPa 0,0 l/m 2 min 0 min 13 W/m 6,3 km/h (2 Bft)
15.10.2014 08:16 11,7 C 10,0 C 90 % 1006,2 hPa 0,0 l/m 0 min 0 min 14 W/m 8,4 km/h (2 Bft)
15.10.2014 08:18 11,6 C 10,0 C 90 % 1006,3 hPa 0,0 l/m 0 min 0 min 16 W/m 10,5 km/h (2 Bft)
15.10.2014 08:20 11,6 C 10,0 C 90 % 1006,3 hPa 0,0 l/m 0 min 0 min 17 W/m 10,5 km/h (2 Bft)
15.10.2014 08:22 11,6 C 10,0 C 90 % 1006,3 hPa 0,0 l/m 0 min 0 min 17 W/m 10,5 km/h (2 Bft)
15.10.2014 08:24 11,6 C 10,0 C 90 % 1006,3 hPa 0,0 l/m 0 min 0 min 17 W/m 8,4 km/h (2 Bft)
15.10.2014 08:26 11,6 C 10,0 C 90 % 1006,3 hPa 0,0 l/m 0 min 0 min 17 W/m 6,3 km/h (2 Bft)
15.10.2014 08:28 11,6 C 10,0 C 90 % 1006,3 hPa 0,0 l/m 0 min 0 min 20 W/m 6,3 km/h (2 Bft)
15.10.2014 08:30 11,6 C 10,0 C 90 % 1006,3 hPa 0,0 l/m 0 min 0 min 25 W/m 12,6 km/h (3 Bft)
15.10.2014 08:32 11,5 C 10,0 C 90 % 1006,4 hPa 0,0 l/m 2 min 0 min 34 W/m 10,5 km/h (2 Bft)
15.10.2014 08:34 11,5 C 10,0 C 90 % 1006,3 hPa 0,0 l/m 2 min 0 min 42 W/m 10,5 km/h (2 Bft)
15.10.2014 08:36 11,5 C 10,0 C 90 % 1006,4 hPa 0,0 l/m 2 min 0 min 52 W/m 8,4 km/h (2 Bft)
15.10.2014 08:38 11,5 C 10,6 C 90 % 1006,4 hPa 0,0 l/m 2 min 0 min 49 W/m 10,5 km/h (2 Bft)
15.10.2014 08:40 11,5 C 10,6 C 90 % 1006,4 hPa 0,0 l/m 0 min 0 min 35 W/m 10,5 km/h (2 Bft)
15.10.2014 08:42 11,5 C 10,6 C 90 % 1006,4 hPa 0,0 l/m 0 min 0 min 32 W/m 12,6 km/h (3 Bft)
15.10.2014 08:44 11,5 C 10,6 C 90 % 1006,4 hPa 0,0 l/m 0 min 0 min 30 W/m 14,6 km/h (3 Bft)
15.10.2014 08:46 11,4 C 10,6 C 90 % 1006,4 hPa 0,0 l/m 0 min 0 min 30 W/m 14,6 km/h (3 Bft)
15.10.2014 08:48 11,5 C 10,6 C 91 % 1006,5 hPa 0,0 l/m 0 min 0 min 30 W/m 12,6 km/h (3 Bft)
15.10.2014 08:50 11,4 C 10,6 C 90 % 1006,5 hPa 0,0 l/m 0 min 0 min 34 W/m 12,6 km/h (3 Bft)
15.10.2014 08:52 11,4 C 10,6 C 91 % 1006,6 hPa 0,0 l/m 0 min 0 min 46 W/m 12,6 km/h (3 Bft)
15.10.2014 08:54 11,4 C 10,6 C 91 % 1006,5 hPa 0,0 l/m 2 min 0 min 96 W/m 12,6 km/h (3 Bft)
15.10.2014 08:56 11,4 C 10,6 C 91 % 1006,5 hPa 0,0 l/m 2 min 0 min 70 W/m 12,6 km/h (3 Bft)
15.10.2014 08:58 11,5 C 10,6 C 91 % 1006,5 hPa 0,0 l/m 2 min 0 min 67 W/m 10,5 km/h (2 Bft)
15.10.2014 09:00 11,5 C 10,6 C 91 % 1006,6 hPa 0,0 l/m 2 min 0 min 90 W/m 14,6 km/h (3 Bft)
15.10.2014 09:02 11,5 C 11,1 C 91 % 1006,6 hPa 0,0 l/m 2 min 0 min 121 W/m 10,5 km/h (2 Bft)
15.10.2014 09:04 11,5 C 11,1 C 91 % 1006,6 hPa 0,0 l/m 2 min 0 min 182 W/m 12,6 km/h (3 Bft)
15.10.2014 09:06 11,6 C 11,1 C 91 % 1006,6 hPa 0,0 l/m 2 min 0 min 184 W/m 8,4 km/h (2 Bft)
15.10.2014 09:08 11,6 C 11,1 C 91 % 1006,6 hPa 0,0 l/m 2 min 0 min 170 W/m 16,7 km/h (3 Bft)
15.10.2014 09:10 11,6 C 11,1 C 91 % 1006,6 hPa 0,0 l/m 2 min 0 min 150 W/m 16,7 km/h (3 Bft)
15.10.2014 09:12 11,7 C 11,1 C 92 % 1006,6 hPa 0,0 l/m 2 min 0 min 78 W/m 16,7 km/h (3 Bft)
15.10.2014 09:14 11,7 C 11,1 C 92 % 1006,6 hPa 0,0 l/m 0 min 0 min 49 W/m 18,8 km/h (3 Bft)
15.10.2014 09:16 11,7 C 11,1 C 92 % 1006,7 hPa 0,0 l/m 0 min 0 min 57 W/m 16,7 km/h (3 Bft)
15.10.2014 09:18 11,7 C 11,1 C 91 % 1006,8 hPa 0,0 l/m 0 min 0 min 60 W/m 12,6 km/h (3 Bft)
15.10.2014 09:20 11,8 C 11,1 C 91 % 1006,8 hPa 0,0 l/m 0 min 0 min 68 W/m 14,6 km/h (3 Bft)
15.10.2014 09:22 11,8 C 11,1 C 91 % 1006,9 hPa 0,0 l/m 0 min 0 min 76 W/m 18,8 km/h (3 Bft)
15.10.2014 09:24 11,8 C 11,1 C 91 % 1006,9 hPa 0,0 l/m 0 min 0 min 82 W/m 14,6 km/h (3 Bft)
15.10.2014 09:26 11,8 C 11,1 C 91 % 1006,9 hPa 0,0 l/m 2 min 0 min 149 W/m 14,6 km/h (3 Bft)
15.10.2014 09:28 11,8 C 11,1 C 91 % 1006,9 hPa 0,0 l/m 2 min 0 min 200 W/m 14,6 km/h (3 Bft)
15.10.2014 09:30 11,9 C 11,1 C 91 % 1006,9 hPa 0,0 l/m 2 min 0 min 217 W/m 14,6 km/h (3 Bft)
15.10.2014 09:32 11,9 C 11,1 C 91 % 1006,9 hPa 0,0 l/m 2 min 0 min 185 W/m 14,6 km/h (3 Bft)
15.10.2014 09:34 11,9 C 11,7 C 91 % 1006,9 hPa 0,0 l/m 2 min 0 min 184 W/m 18,8 km/h (3 Bft)
15.10.2014 09:36 12,0 C 11,7 C 91 % 1007,0 hPa 0,0 l/m 2 min 0 min 153 W/m 16,7 km/h (3 Bft)
15.10.2014 09:38 12,1 C 11,7 C 91 % 1007,0 hPa 0,0 l/m 2 min 0 min 119 W/m 16,7 km/h (3 Bft)
15.10.2014 09:40 12,1 C 11,7 C 91 % 1007,0 hPa 0,0 l/m 2 min 0 min 105 W/m 10,5 km/h (2 Bft)
15.10.2014 09:42 12,2 C 11,7 C 91 % 1007,1 hPa 0,0 l/m 0 min 0 min 97 W/m 16,7 km/h (3 Bft)
15.10.2014 09:44 12,2 C 11,7 C 91 % 1007,0 hPa 0,0 l/m 0 min 0 min 93 W/m 14,6 km/h (3 Bft)
15.10.2014 09:46 12,2 C 11,7 C 91 % 1007,0 hPa 0,0 l/m 0 min 0 min 96 W/m 10,5 km/h (2 Bft)
15.10.2014 09:48 12,3 C 11,7 C 91 % 1007,1 hPa 0,0 l/m 0 min 0 min 103 W/m 12,6 km/h (3 Bft)
15.10.2014 09:50 12,3 C 11,7 C 91 % 1007,1 hPa 0,0 l/m 2 min 0 min 111 W/m 12,6 km/h (3 Bft)
15.10.2014 09:52 12,3 C 11,7 C 91 % 1007,1 hPa 0,0 l/m 2 min 0 min 119 W/m 14,6 km/h (3 Bft)
15.10.2014 09:54 12,4 C 11,7 C 91 % 1007,1 hPa 0,0 l/m 2 min 0 min 125 W/m 12,6 km/h (3 Bft)
15.10.2014 09:56 12,4 C 12,2 C 91 % 1007,0 hPa 0,0 l/m 2 min 0 min 129 W/m 18,8 km/h (3 Bft)
15.10.2014 09:58 12,4 C 12,2 C 91 % 1007,0 hPa 0,0 l/m 2 min 0 min 134 W/m 12,6 km/h (3 Bft)
15.10.2014 10:00 12,5 C 12,2 C 90 % 1006,9 hPa 0,0 l/m 2 min 0 min 137 W/m 12,6 km/h (3 Bft)
15.10.2014 10:02 12,6 C 12,2 C 90 % 1007,0 hPa 0,0 l/m 2 min 0 min 131 W/m 14,6 km/h (3 Bft)
15.10.2014 10:04 12,6 C 12,2 C 90 % 1006,9 hPa 0,0 l/m 2 min 0 min 133 W/m 12,6 km/h (3 Bft)
15.10.2014 10:06 12,7 C 12,2 C 90 % 1006,9 hPa 0,0 l/m 2 min 0 min 140 W/m 16,7 km/h (3 Bft)
15.10.2014 10:08 12,7 C 12,2 C 90 % 1007,0 hPa 0,0 l/m 2 min 0 min 140 W/m 14,6 km/h (3 Bft)
15.10.2014 10:10 12,7 C 12,2 C 90 % 1007,0 hPa 0,0 l/m 2 min 0 min 139 W/m 20,9 km/h (4 Bft)
15.10.2014 10:12 12,8 C 12,2 C 90 % 1007,0 hPa 0,0 l/m 2 min 0 min 139 W/m 20,9 km/h (4 Bft)
15.10.2014 10:14 12,8 C 12,2 C 90 % 1007,0 hPa 0,0 l/m 2 min 0 min 142 W/m 20,9 km/h (4 Bft)
15.10.2014 10:16 12,9 C 12,2 C 90 % 1007,0 hPa 0,0 l/m 2 min 0 min 149 W/m 16,7 km/h (3 Bft)
15.10.2014 10:18 12,9 C 12,2 C 90 % 1007,0 hPa 0,0 l/m 2 min 0 min 160 W/m 14,6 km/h (3 Bft)
15.10.2014 10:20 13,0 C 12,2 C 90 % 1007,0 hPa 0,0 l/m 2 min 0 min 159 W/m 10,5 km/h (2 Bft)
15.10.2014 10:22 13,1 C 12,2 C 90 % 1007,0 hPa 0,0 l/m 2 min 0 min 158 W/m 14,6 km/h (3 Bft)
15.10.2014 10:24 13,1 C 12,2 C 89 % 1006,9 hPa 0,0 l/m 2 min 0 min 191 W/m 16,7 km/h (3 Bft)
15.10.2014 10:26 13,1 C 12,2 C 89 % 1007,0 hPa 0,0 l/m 2 min 0 min 319 W/m 14,6 km/h (3 Bft)
15.10.2014 10:28 13,2 C 12,2 C 89 % 1007,0 hPa 0,0 l/m 2 min 0 min 341 W/m 14,6 km/h (3 Bft)
15.10.2014 10:30 13,2 C 12,2 C 89 % 1006,9 hPa 0,0 l/m 2 min 0 min 301 W/m 10,5 km/h (2 Bft)
15.10.2014 10:32 13,3 C 12,2 C 89 % 1006,9 hPa 0,0 l/m 2 min 0 min 347 W/m 12,6 km/h (3 Bft)
15.10.2014 10:34 13,4 C 12,2 C 89 % 1006,9 hPa 0,0 l/m 2 min 0 min 315 W/m 12,6 km/h (3 Bft)
15.10.2014 10:36 13,4 C 12,2 C 89 % 1006,8 hPa 0,0 l/m 2 min 0 min 341 W/m 6,3 km/h (2 Bft)
15.10.2014 10:38 13,6 C 12,2 C 89 % 1006,8 hPa 0,0 l/m 2 min 0 min 339 W/m 10,5 km/h (2 Bft)
15.10.2014 10:40 13,6 C 12,8 C 89 % 1006,8 hPa 0,0 l/m 2 min 0 min 346 W/m 12,6 km/h (3 Bft)
15.10.2014 10:42 13,7 C 12,8 C 89 % 1006,7 hPa 0,0 l/m 2 min 0 min 352 W/m 14,6 km/h (3 Bft)
15.10.2014 10:44 13,8 C 12,8 C 89 % 1006,7 hPa 0,0 l/m 2 min 0 min 351 W/m 27,2 km/h (4 Bft)
15.10.2014 10:46 13,9 C 12,8 C 88 % 1006,7 hPa 0,0 l/m 2 min 0 min 357 W/m 14,6 km/h (3 Bft)
15.10.2014 10:48 14,1 C 12,8 C 88 % 1006,7 hPa 0,0 l/m 2 min 0 min 367 W/m 12,6 km/h (3 Bft)
15.10.2014 10:50 14,2 C 12,8 C 88 % 1006,7 hPa 0,0 l/m 2 min 0 min 359 W/m 18,8 km/h (3 Bft)
15.10.2014 10:52 14,2 C 12,8 C 87 % 1006,7 hPa 0,0 l/m 2 min 0 min 366 W/m 18,8 km/h (3 Bft)
15.10.2014 10:54 14,4 C 13,3 C 87 % 1006,6 hPa 0,0 l/m 2 min 0 min 384 W/m 14,6 km/h (3 Bft)
15.10.2014 10:56 14,5 C 13,3 C 87 % 1006,6 hPa 0,0 l/m 2 min 0 min 374 W/m 18,8 km/h (3 Bft)
15.10.2014 10:58 14,6 C 13,3 C 86 % 1006,7 hPa 0,0 l/m 2 min 0 min 387 W/m 18,8 km/h (3 Bft)
15.10.2014 11:00 14,7 C 13,3 C 86 % 1006,8 hPa 0,0 l/m 2 min 0 min 388 W/m 20,9 km/h (4 Bft)
15.10.2014 11:02 14,8 C 13,3 C 85 % 1006,8 hPa 0,0 l/m 2 min 0 min 394 W/m 20,9 km/h (4 Bft)
15.10.2014 11:04 14,9 C 13,3 C 85 % 1006,7 hPa 0,0 l/m 2 min 0 min 402 W/m 18,8 km/h (3 Bft)
15.10.2014 11:06 15,0 C 13,3 C 84 % 1006,9 hPa 0,0 l/m 2 min 0 min 406 W/m 20,9 km/h (4 Bft)
15.10.2014 11:08 15,1 C 13,3 C 84 % 1006,9 hPa 0,0 l/m 2 min 0 min 416 W/m 18,8 km/h (3 Bft)
15.10.2014 11:10 15,2 C 13,3 C 84 % 1006,9 hPa 0,0 l/m 2 min 0 min 413 W/m 18,8 km/h (3 Bft)
15.10.2014 11:12 15,3 C 13,9 C 83 % 1006,9 hPa 0,0 l/m 2 min 0 min 433 W/m 20,9 km/h (4 Bft)
15.10.2014 11:14 15,3 C 13,9 C 83 % 1007,0 hPa 0,0 l/m 2 min 0 min 446 W/m 20,9 km/h (4 Bft)
15.10.2014 11:16 15,4 C 13,9 C 83 % 1007,0 hPa 0,0 l/m 2 min 0 min 456 W/m 25,1 km/h (4 Bft)
15.10.2014 11:18 15,5 C 13,9 C 82 % 1007,1 hPa 0,0 l/m 2 min 0 min 453 W/m 25,1 km/h (4 Bft)
15.10.2014 11:20 15,6 C 13,9 C 82 % 1007,0 hPa 0,0 l/m 2 min 0 min 511 W/m 16,7 km/h (3 Bft)
15.10.2014 11:22 15,7 C 14,4 C 82 % 1007,0 hPa 0,0 l/m 2 min 0 min 579 W/m 20,9 km/h (4 Bft)
15.10.2014 11:24 15,8 C 15,0 C 82 % 1007,0 hPa 0,0 l/m 2 min 0 min 600 W/m 20,9 km/h (4 Bft)
15.10.2014 11:26 15,9 C 15,0 C 82 % 1007,0 hPa 0,0 l/m 2 min 0 min 599 W/m 18,8 km/h (3 Bft)
15.10.2014 11:28 16,1 C 15,0 C 81 % 1007,1 hPa 0,0 l/m 2 min 0 min 595 W/m 23,0 km/h (4 Bft)
15.10.2014 11:30 16,2 C 15,0 C 81 % 1007,0 hPa 0,0 l/m 2 min 0 min 538 W/m 27,2 km/h (4 Bft)
15.10.2014 11:32 16,3 C 15,0 C 80 % 1007,1 hPa 0,0 l/m 2 min 0 min 566 W/m 20,9 km/h (4 Bft)
15.10.2014 11:34 16,4 C 15,0 C 80 % 1007,0 hPa 0,0 l/m 2 min 0 min 562 W/m 25,1 km/h (4 Bft)
15.10.2014 11:36 16,5 C 15,0 C 79 % 1007,1 hPa 0,0 l/m 2 min 0 min 551 W/m 25,1 km/h (4 Bft)
15.10.2014 11:38 16,5 C 15,0 C 78 % 1007,0 hPa 0,0 l/m 2 min 0 min 556 W/m 33,5 km/h (5 Bft)
15.10.2014 11:40 16,6 C 15,0 C 77 % 1007,0 hPa 0,0 l/m 2 min 0 min 526 W/m 31,4 km/h (5 Bft)
15.10.2014 11:42 16,5 C 14,4 C 77 % 1007,1 hPa 0,0 l/m 2 min 0 min 527 W/m 33,5 km/h (5 Bft)
15.10.2014 11:44 16,6 C 14,4 C 77 % 1007,0 hPa 0,0 l/m 2 min 0 min 531 W/m 23,0 km/h (4 Bft)
15.10.2014 11:46 16,6 C 14,4 C 77 % 1007,0 hPa 0,0 l/m 2 min 0 min 541 W/m 23,0 km/h (4 Bft)
15.10.2014 11:48 16,6 C 14,4 C 77 % 1007,0 hPa 0,0 l/m 2 min 0 min 531 W/m 33,5 km/h (5 Bft)
15.10.2014 11:50 16,6 C 14,4 C 77 % 1007,0 hPa 0,0 l/m 2 min 0 min 526 W/m 25,1 km/h (4 Bft)
15.10.2014 11:52 16,7 C 15,0 C 77 % 1007,0 hPa 0,0 l/m 2 min 0 min 529 W/m 25,1 km/h (4 Bft)
15.10.2014 11:54 16,7 C 15,0 C 77 % 1007,0 hPa 0,0 l/m 2 min 0 min 649 W/m 27,2 km/h (4 Bft)
15.10.2014 11:56 16,8 C 15,0 C 77 % 1007,0 hPa 0,0 l/m 2 min 0 min 651 W/m 27,2 km/h (4 Bft)
15.10.2014 11:58 16,8 C 15,0 C 76 % 1006,9 hPa 0,0 l/m 2 min 0 min 414 W/m 25,1 km/h (4 Bft)
15.10.2014 12:00 16,8 C 15,0 C 76 % 1006,9 hPa 0,0 l/m 2 min 0 min 310 W/m 27,2 km/h (4 Bft)
15.10.2014 12:02 16,8 C 15,0 C 76 % 1007,0 hPa 0,0 l/m 2 min 0 min 445 W/m 23,0 km/h (4 Bft)
15.10.2014 12:06 16,8 C 15,0 C 76 % 1006,9 hPa 0,0 l/m 2 min 0 min 370 W/m 23,0 km/h (4 Bft)
15.10.2014 12:08 16,8 C 15,0 C 75 % 1007,0 hPa 0,0 l/m 2 min 0 min 246 W/m 27,2 km/h (4 Bft)
15.10.2014 12:10 16,8 C 15,0 C 75 % 1007,0 hPa 0,0 l/m 2 min 0 min 294 W/m 20,9 km/h (4 Bft)
15.10.2014 12:12 16,8 C 15,0 C 75 % 1007,0 hPa 0,0 l/m 2 min 0 min 296 W/m 14,6 km/h (3 Bft)
15.10.2014 12:14 16,8 C 15,0 C 76 % 1006,9 hPa 0,0 l/m 2 min 0 min 285 W/m 16,7 km/h (3 Bft)
15.10.2014 12:16 16,7 C 15,0 C 76 % 1007,0 hPa 0,0 l/m 2 min 0 min 294 W/m 16,7 km/h (3 Bft)
15.10.2014 12:18 16,7 C 15,0 C 76 % 1006,9 hPa 0,0 l/m 2 min 0 min 328 W/m 18,8 km/h (3 Bft)
15.10.2014 12:20 16,7 C 15,6 C 77 % 1007,0 hPa 0,0 l/m 2 min 0 min 369 W/m 18,8 km/h (3 Bft)
15.10.2014 12:22 16,8 C 15,6 C 78 % 1006,9 hPa 0,0 l/m 2 min 0 min 471 W/m 23,0 km/h (4 Bft)
15.10.2014 12:24 16,8 C 15,6 C 77 % 1007,0 hPa 0,0 l/m 2 min 0 min 611 W/m 20,9 km/h (4 Bft)
15.10.2014 12:26 16,8 C 15,0 C 77 % 1007,0 hPa 0,0 l/m 2 min 0 min 479 W/m 18,8 km/h (3 Bft)
15.10.2014 12:28 16,8 C 15,0 C 76 % 1007,0 hPa 0,0 l/m 2 min 0 min 342 W/m 25,1 km/h (4 Bft)
15.10.2014 12:30 16,8 C 15,0 C 76 % 1007,0 hPa 0,0 l/m 2 min 0 min 263 W/m 23,0 km/h (4 Bft)
15.10.2014 12:32 16,8 C 15,0 C 76 % 1007,0 hPa 0,0 l/m 2 min 0 min 262 W/m 23,0 km/h (4 Bft)
15.10.2014 12:34 16,8 C 14,4 C 76 % 1006,9 hPa 0,0 l/m 2 min 0 min 213 W/m 23,0 km/h (4 Bft)
15.10.2014 12:36 16,7 C 14,4 C 76 % 1006,9 hPa 0,0 l/m 2 min 0 min 225 W/m 25,1 km/h (4 Bft)
15.10.2014 12:38 16,7 C 14,4 C 76 % 1007,0 hPa 0,0 l/m 2 min 0 min 233 W/m 16,7 km/h (3 Bft)
15.10.2014 12:40 16,7 C 14,4 C 76 % 1007,0 hPa 0,0 l/m 0 min 0 min 196 W/m 25,1 km/h (4 Bft)
15.10.2014 12:42 16,6 C 14,4 C 76 % 1007,0 hPa 0,0 l/m 2 min 0 min 218 W/m 16,7 km/h (3 Bft)
15.10.2014 12:44 16,6 C 14,4 C 76 % 1007,0 hPa 0,0 l/m 2 min 0 min 231 W/m 29,3 km/h (5 Bft)
15.10.2014 12:46 16,4 C 13,9 C 76 % 1007,0 hPa 0,0 l/m 2 min 0 min 219 W/m 20,9 km/h (4 Bft)
15.10.2014 12:48 16,4 C 13,9 C 76 % 1007,0 hPa 0,0 l/m 2 min 0 min 262 W/m 25,1 km/h (4 Bft)
15.10.2014 12:50 16,3 C 13,9 C 76 % 1007,0 hPa 0,0 l/m 2 min 0 min 324 W/m 23,0 km/h (4 Bft)
15.10.2014 12:52 16,3 C 13,9 C 77 % 1007,0 hPa 0,0 l/m 2 min 0 min 352 W/m 23,0 km/h (4 Bft)
15.10.2014 12:54 16,2 C 13,9 C 77 % 1007,0 hPa 0,0 l/m 2 min 0 min 383 W/m 20,9 km/h (4 Bft)
15.10.2014 12:56 16,2 C 14,4 C 77 % 1006,9 hPa 0,0 l/m 2 min 0 min 412 W/m 20,9 km/h (4 Bft)
15.10.2014 12:58 16,2 C 14,4 C 77 % 1007,0 hPa 0,0 l/m 2 min 0 min 405 W/m 14,6 km/h (3 Bft)
15.10.2014 13:00 16,2 C 14,4 C 77 % 1006,9 hPa 0,0 l/m 2 min 0 min 311 W/m 12,6 km/h (3 Bft)
15.10.2014 13:02 16,2 C 14,4 C 78 % 1006,9 hPa 0,0 l/m 2 min 0 min 338 W/m 18,8 km/h (3 Bft)
15.10.2014 13:04 16,2 C 15,0 C 77 % 1006,9 hPa 0,0 l/m 2 min 0 min 332 W/m 18,8 km/h (3 Bft)
15.10.2014 13:06 16,2 C 15,0 C 77 % 1006,8 hPa 0,0 l/m 2 min 0 min 348 W/m 16,7 km/h (3 Bft)
15.10.2014 13:08 16,3 C 15,0 C 77 % 1006,8 hPa 0,0 l/m 2 min 0 min 474 W/m 14,6 km/h (3 Bft)
15.10.2014 13:10 16,3 C 15,0 C 77 % 1006,8 hPa 0,0 l/m 2 min 0 min 430 W/m 12,6 km/h (3 Bft)
15.10.2014 13:12 16,4 C 15,6 C 78 % 1006,7 hPa 0,0 l/m 2 min 0 min 344 W/m 16,7 km/h (3 Bft)
15.10.2014 13:14 16,4 C 15,0 C 77 % 1006,8 hPa 0,0 l/m 2 min 0 min 342 W/m 18,8 km/h (3 Bft)
15.10.2014 13:16 16,5 C 15,6 C 77 % 1006,7 hPa 0,0 l/m 2 min 0 min 331 W/m 10,5 km/h (2 Bft)
15.10.2014 13:18 16,6 C 15,6 C 77 % 1006,7 hPa 0,0 l/m 2 min 0 min 316 W/m 10,5 km/h (2 Bft)
15.10.2014 13:20 16,6 C 15,6 C 77 % 1006,7 hPa 0,0 l/m 2 min 0 min 333 W/m 18,8 km/h (3 Bft)
15.10.2014 13:22 16,6 C 15,6 C 77 % 1006,6 hPa 0,0 l/m 2 min 0 min 320 W/m 20,9 km/h (4 Bft)
15.10.2014 13:24 16,7 C 15,6 C 76 % 1006,7 hPa 0,0 l/m 2 min 0 min 320 W/m 20,9 km/h (4 Bft)
15.10.2014 13:26 16,7 C 15,6 C 76 % 1006,7 hPa 0,0 l/m 2 min 0 min 344 W/m 23,0 km/h (4 Bft)
15.10.2014 13:28 16,8 C 15,6 C 76 % 1006,7 hPa 0,0 l/m 2 min 0 min 373 W/m 14,6 km/h (3 Bft)
15.10.2014 13:30 16,8 C 15,6 C 76 % 1006,6 hPa 0,0 l/m 2 min 0 min 318 W/m 14,6 km/h (3 Bft)
15.10.2014 13:32 16,9 C 15,6 C 76 % 1006,7 hPa 0,0 l/m 2 min 0 min 420 W/m 18,8 km/h (3 Bft)
15.10.2014 13:34 16,9 C 15,6 C 75 % 1006,6 hPa 0,0 l/m 2 min 0 min 405 W/m 18,8 km/h (3 Bft)
15.10.2014 13:36 17,1 C 15,6 C 75 % 1006,5 hPa 0,0 l/m 2 min 0 min 369 W/m 18,8 km/h (3 Bft)
15.10.2014 13:38 17,1 C 15,6 C 74 % 1006,6 hPa 0,0 l/m 2 min 0 min 327 W/m 14,6 km/h (3 Bft)
15.10.2014 13:40 17,1 C 15,6 C 74 % 1006,6 hPa 0,0 l/m 2 min 0 min 281 W/m 16,7 km/h (3 Bft)
15.10.2014 13:42 17,2 C 15,6 C 74 % 1006,6 hPa 0,0 l/m 2 min 0 min 341 W/m 20,9 km/h (4 Bft)
15.10.2014 13:44 17,2 C 15,6 C 74 % 1006,6 hPa 0,0 l/m 2 min 0 min 292 W/m 20,9 km/h (4 Bft)
15.10.2014 13:46 17,2 C 16,1 C 74 % 1006,5 hPa 0,0 l/m 2 min 0 min 304 W/m 20,9 km/h (4 Bft)
15.10.2014 13:48 17,2 C 16,1 C 75 % 1006,5 hPa 0,0 l/m 2 min 0 min 591 W/m 12,6 km/h (3 Bft)
15.10.2014 13:50 17,3 C 16,1 C 75 % 1006,5 hPa 0,0 l/m 2 min 0 min 690 W/m 20,9 km/h (4 Bft)
15.10.2014 13:52 17,4 C 16,1 C 74 % 1006,5 hPa 0,0 l/m 2 min 0 min 440 W/m 18,8 km/h (3 Bft)
15.10.2014 13:54 17,4 C 16,1 C 74 % 1006,5 hPa 0,0 l/m 2 min 0 min 271 W/m 25,1 km/h (4 Bft)
15.10.2014 13:56 17,4 C 16,1 C 73 % 1006,6 hPa 0,0 l/m 2 min 0 min 259 W/m 23,0 km/h (4 Bft)
15.10.2014 13:58 17,4 C 15,6 C 73 % 1006,6 hPa 0,0 l/m 2 min 0 min 204 W/m 25,1 km/h (4 Bft)
15.10.2014 14:00 17,4 C 15,6 C 72 % 1006,6 hPa 0,0 l/m 0 min 0 min 172 W/m 20,9 km/h (4 Bft)
15.10.2014 14:02 17,4 C 15,6 C 72 % 1006,7 hPa 0,0 l/m 0 min 0 min 150 W/m 16,7 km/h (3 Bft)
15.10.2014 14:04 17,3 C 15,0 C 73 % 1006,7 hPa 0,0 l/m 0 min 0 min 136 W/m 18,8 km/h (3 Bft)
15.10.2014 14:06 17,3 C 15,0 C 73 % 1006,6 hPa 0,0 l/m 0 min 0 min 138 W/m 12,6 km/h (3 Bft)
15.10.2014 14:08 17,2 C 15,0 C 74 % 1006,6 hPa 0,0 l/m 0 min 0 min 151 W/m 18,8 km/h (3 Bft)
15.10.2014 14:10 17,2 C 15,0 C 73 % 1006,7 hPa 0,0 l/m 0 min 0 min 170 W/m 16,7 km/h (3 Bft)
15.10.2014 14:12 17,2 C 15,6 C 74 % 1006,6 hPa 0,0 l/m 0 min 0 min 187 W/m 16,7 km/h (3 Bft)
15.10.2014 14:14 17,1 C 15,6 C 74 % 1006,6 hPa 0,0 l/m 2 min 0 min 209 W/m 14,6 km/h (3 Bft)
15.10.2014 14:16 17,1 C 15,6 C 75 % 1006,6 hPa 0,0 l/m 2 min 0 min 241 W/m 12,6 km/h (3 Bft)
15.10.2014 14:18 17,1 C 16,1 C 76 % 1006,5 hPa 0,0 l/m 2 min 0 min 275 W/m 12,6 km/h (3 Bft)
15.10.2014 14:20 17,1 C 16,1 C 76 % 1006,6 hPa 0,0 l/m 2 min 0 min 259 W/m 12,6 km/h (3 Bft)
15.10.2014 14:22 17,1 C 16,1 C 76 % 1006,6 hPa 0,0 l/m 0 min 0 min 197 W/m 8,4 km/h (2 Bft)
15.10.2014 14:24 17,1 C 16,1 C 76 % 1006,6 hPa 0,0 l/m 0 min 0 min 184 W/m 16,7 km/h (3 Bft)
15.10.2014 14:26 17,1 C 15,6 C 75 % 1006,7 hPa 0,0 l/m 0 min 0 min 174 W/m 16,7 km/h (3 Bft)
15.10.2014 14:28 17,1 C 15,6 C 75 % 1006,6 hPa 0,0 l/m 0 min 0 min 179 W/m 12,6 km/h (3 Bft)
15.10.2014 14:30 17,1 C 15,6 C 74 % 1006,5 hPa 0,0 l/m 0 min 0 min 189 W/m 16,7 km/h (3 Bft)
15.10.2014 14:32 17,0 C 15,6 C 74 % 1006,6 hPa 0,0 l/m 2 min 0 min 204 W/m 16,7 km/h (3 Bft)
15.10.2014 14:34 17,0 C 15,6 C 74 % 1006,6 hPa 0,0 l/m 2 min 0 min 203 W/m 20,9 km/h (4 Bft)
15.10.2014 14:36 17,0 C 15,6 C 74 % 1006,6 hPa 0,0 l/m 2 min 0 min 198 W/m 20,9 km/h (4 Bft)
15.10.2014 14:38 16,9 C 15,6 C 74 % 1006,6 hPa 0,0 l/m 2 min 0 min 196 W/m 16,7 km/h (3 Bft)
15.10.2014 14:40 16,9 C 15,6 C 74 % 1006,6 hPa 0,0 l/m 2 min 0 min 222 W/m 14,6 km/h (3 Bft)
15.10.2014 14:42 17,0 C 15,6 C 75 % 1006,5 hPa 0,0 l/m 2 min 0 min 247 W/m 16,7 km/h (3 Bft)
15.10.2014 14:44 17,0 C 16,1 C 75 % 1006,5 hPa 0,0 l/m 2 min 0 min 274 W/m 14,6 km/h (3 Bft)
15.10.2014 14:46 17,1 C 16,1 C 75 % 1006,5 hPa 0,0 l/m 2 min 0 min 265 W/m 16,7 km/h (3 Bft)
15.10.2014 14:48 17,1 C 16,1 C 74 % 1006,5 hPa 0,0 l/m 2 min 0 min 261 W/m 23,0 km/h (4 Bft)
15.10.2014 14:50 17,1 C 16,1 C 73 % 1006,5 hPa 0,0 l/m 2 min 0 min 237 W/m 25,1 km/h (4 Bft)
15.10.2014 14:52 17,1 C 15,6 C 73 % 1006,4 hPa 0,0 l/m 2 min 0 min 226 W/m 25,1 km/h (4 Bft)
15.10.2014 14:54 17,1 C 15,6 C 71 % 1006,5 hPa 0,0 l/m 2 min 0 min 234 W/m 25,1 km/h (4 Bft)
15.10.2014 14:56 17,1 C 15,6 C 71 % 1006,5 hPa 0,0 l/m 2 min 0 min 263 W/m 25,1 km/h (4 Bft)
15.10.2014 14:58 17,1 C 15,6 C 71 % 1006,5 hPa 0,0 l/m 2 min 0 min 222 W/m 20,9 km/h (4 Bft)
15.10.2014 15:00 17,1 C 15,6 C 72 % 1006,5 hPa 0,0 l/m 2 min 0 min 197 W/m 14,6 km/h (3 Bft)
15.10.2014 15:02 17,1 C 15,6 C 72 % 1006,5 hPa 0,0 l/m 0 min 0 min 160 W/m 12,6 km/h (3 Bft)
15.10.2014 15:04 17,1 C 15,6 C 72 % 1006,5 hPa 0,0 l/m 0 min 0 min 144 W/m 16,7 km/h (3 Bft)
15.10.2014 15:06 17,1 C 15,6 C 72 % 1006,6 hPa 0,0 l/m 0 min 0 min 115 W/m 12,6 km/h (3 Bft)
15.10.2014 15:08 17,1 C 15,0 C 72 % 1006,5 hPa 0,0 l/m 0 min 0 min 92 W/m 12,6 km/h (3 Bft)
15.10.2014 15:10 17,0 C 15,0 C 72 % 1006,6 hPa 0,0 l/m 0 min 0 min 79 W/m 12,6 km/h (3 Bft)
15.10.2014 15:12 17,0 C 15,0 C 72 % 1006,6 hPa 0,0 l/m 0 min 0 min 73 W/m 12,6 km/h (3 Bft)
15.10.2014 15:14 16,9 C 15,0 C 72 % 1006,6 hPa 0,0 l/m 0 min 0 min 82 W/m 14,6 km/h (3 Bft)
15.10.2014 15:16 16,9 C 15,0 C 73 % 1006,6 hPa 0,0 l/m 0 min 0 min 97 W/m 10,5 km/h (2 Bft)
15.10.2014 15:18 16,9 C 15,0 C 73 % 1006,6 hPa 0,0 l/m 0 min 0 min 129 W/m 16,7 km/h (3 Bft)
15.10.2014 15:20 16,9 C 15,0 C 73 % 1006,6 hPa 0,0 l/m 0 min 0 min 162 W/m 8,4 km/h (2 Bft)
15.10.2014 15:22 16,9 C 15,0 C 73 % 1006,6 hPa 0,0 l/m 2 min 0 min 175 W/m 12,6 km/h (3 Bft)
15.10.2014 15:24 16,8 C 15,0 C 73 % 1006,6 hPa 0,0 l/m 2 min 0 min 174 W/m 18,8 km/h (3 Bft)
15.10.2014 15:26 16,8 C 15,6 C 73 % 1006,6 hPa 0,0 l/m 2 min 0 min 174 W/m 12,6 km/h (3 Bft)
15.10.2014 15:28 16,8 C 15,6 C 73 % 1006,6 hPa 0,0 l/m 0 min 0 min 168 W/m 12,6 km/h (3 Bft)
15.10.2014 15:30 16,8 C 15,6 C 73 % 1006,6 hPa 0,0 l/m 0 min 0 min 155 W/m 10,5 km/h (2 Bft)
15.10.2014 15:32 16,8 C 15,6 C 74 % 1006,7 hPa 0,0 l/m 0 min 0 min 140 W/m 12,6 km/h (3 Bft)
15.10.2014 15:34 16,8 C 15,6 C 74 % 1006,7 hPa 0,0 l/m 0 min 0 min 131 W/m 23,0 km/h (4 Bft)
15.10.2014 15:36 16,7 C 15,0 C 74 % 1006,6 hPa 0,0 l/m 0 min 0 min 132 W/m 14,6 km/h (3 Bft)
15.10.2014 15:38 16,7 C 15,6 C 74 % 1006,6 hPa 0,0 l/m 0 min 0 min 135 W/m 12,6 km/h (3 Bft)
15.10.2014 15:40 16,7 C 15,6 C 74 % 1006,6 hPa 0,0 l/m 0 min 0 min 142 W/m 10,5 km/h (2 Bft)
15.10.2014 15:42 16,7 C 15,6 C 74 % 1006,6 hPa 0,0 l/m 0 min 0 min 155 W/m 12,6 km/h (3 Bft)
15.10.2014 15:44 16,7 C 15,6 C 74 % 1006,6 hPa 0,0 l/m 2 min 0 min 170 W/m 14,6 km/h (3 Bft)
15.10.2014 15:46 16,7 C 15,6 C 74 % 1006,6 hPa 0,0 l/m 2 min 0 min 186 W/m 10,5 km/h (2 Bft)
15.10.2014 15:48 16,7 C 15,6 C 74 % 1006,5 hPa 0,0 l/m 2 min 0 min 201 W/m 18,8 km/h (3 Bft)
15.10.2014 15:50 16,7 C 15,6 C 73 % 1006,5 hPa 0,0 l/m 2 min 0 min 202 W/m 16,7 km/h (3 Bft)
15.10.2014 15:52 16,7 C 15,6 C 73 % 1006,5 hPa 0,0 l/m 2 min 0 min 190 W/m 16,7 km/h (3 Bft)
15.10.2014 15:54 16,7 C 15,6 C 73 % 1006,5 hPa 0,0 l/m 2 min 0 min 181 W/m 14,6 km/h (3 Bft)
15.10.2014 15:56 16,7 C 15,6 C 73 % 1006,5 hPa 0,0 l/m 2 min 0 min 182 W/m 8,4 km/h (2 Bft)
15.10.2014 15:58 16,8 C 15,6 C 74 % 1006,5 hPa 0,0 l/m 2 min 0 min 175 W/m 12,6 km/h (3 Bft)
15.10.2014 16:00 16,8 C 15,6 C 74 % 1006,4 hPa 0,0 l/m 2 min 0 min 183 W/m 10,5 km/h (2 Bft)
15.10.2014 16:02 16,8 C 15,6 C 74 % 1006,5 hPa 0,0 l/m 2 min 0 min 197 W/m 10,5 km/h (2 Bft)
15.10.2014 16:04 16,8 C 15,6 C 74 % 1006,4 hPa 0,0 l/m 2 min 0 min 202 W/m 12,6 km/h (3 Bft)
15.10.2014 16:06 16,8 C 15,6 C 74 % 1006,4 hPa 0,0 l/m 2 min 0 min 220 W/m 14,6 km/h (3 Bft)
15.10.2014 16:08 16,8 C 15,6 C 73 % 1006,4 hPa 0,0 l/m 2 min 0 min 213 W/m 10,5 km/h (2 Bft)
15.10.2014 16:10 16,9 C 15,6 C 73 % 1006,3 hPa 0,0 l/m 2 min 0 min 211 W/m 12,6 km/h (3 Bft)
15.10.2014 16:12 16,9 C 15,6 C 73 % 1006,4 hPa 0,0 l/m 2 min 0 min 238 W/m 8,4 km/h (2 Bft)
15.10.2014 16:14 16,9 C 15,6 C 73 % 1006,3 hPa 0,0 l/m 2 min 0 min 261 W/m 6,3 km/h (2 Bft)
15.10.2014 16:16 16,9 C 15,6 C 73 % 1006,3 hPa 0,0 l/m 2 min 0 min 214 W/m 16,7 km/h (3 Bft)
15.10.2014 16:18 17,0 C 15,6 C 73 % 1006,3 hPa 0,0 l/m 2 min 0 min 182 W/m 14,6 km/h (3 Bft)
15.10.2014 16:20 17,0 C 15,6 C 72 % 1006,3 hPa 0,0 l/m 2 min 0 min 175 W/m 18,8 km/h (3 Bft)
15.10.2014 16:21 17,0 C 15,6 C 72 % 1006,3 hPa 0,0 l/m 1 min 0 min 178 W/m 4,2 km/h (1 Bft)
15.10.2014 16:22 17,0 C 15,6 C 72 % 1006,3 hPa 0,0 l/m 1 min 0 min 178 W/m 8,4 km/h (2 Bft)
15.10.2014 16:23 17,0 C 15,6 C 72 % 1006,3 hPa 0,0 l/m 1 min 0 min 169 W/m 14,6 km/h (3 Bft)
15.10.2014 16:24 17,0 C 15,6 C 72 % 1006,3 hPa 0,0 l/m 1 min 0 min 167 W/m 8,4 km/h (2 Bft)
15.10.2014 16:25 17,1 C 15,6 C 72 % 1006,2 hPa 0,0 l/m 1 min 0 min 163 W/m 14,6 km/h (3 Bft)
15.10.2014 16:26 17,1 C 15,6 C 72 % 1006,2 hPa 0,0 l/m 1 min 0 min 160 W/m 12,6 km/h (3 Bft)
15.10.2014 16:27 17,0 C 15,6 C 72 % 1006,2 hPa 0,0 l/m 1 min 0 min 151 W/m 12,6 km/h (3 Bft)
15.10.2014 16:28 17,1 C 15,0 C 72 % 1006,2 hPa 0,0 l/m 1 min 0 min 142 W/m 10,5 km/h (2 Bft)
15.10.2014 16:29 17,0 C 15,0 C 72 % 1006,2 hPa 0,0 l/m 1 min 0 min 134 W/m 4,2 km/h (1 Bft)
15.10.2014 16:30 17,0 C 15,0 C 72 % 1006,2 hPa 0,0 l/m 1 min 0 min 132 W/m 10,5 km/h (2 Bft)
15.10.2014 16:31 17,0 C 15,0 C 72 % 1006,2 hPa 0,0 l/m 1 min 0 min 130 W/m 12,6 km/h (3 Bft)
15.10.2014 16:32 17,0 C 15,0 C 72 % 1006,2 hPa 0,0 l/m 1 min 0 min 132 W/m 8,4 km/h (2 Bft)
15.10.2014 16:33 17,0 C 15,0 C 72 % 1006,3 hPa 0,0 l/m 1 min 0 min 135 W/m 8,4 km/h (2 Bft)
15.10.2014 16:34 17,0 C 15,0 C 72 % 1006,3 hPa 0,0 l/m 1 min 0 min 130 W/m 10,5 km/h (2 Bft)
15.10.2014 16:35 17,0 C 15,0 C 72 % 1006,2 hPa 0,0 l/m 1 min 0 min 125 W/m 14,6 km/h (3 Bft)
15.10.2014 16:36 17,0 C 15,0 C 72 % 1006,2 hPa 0,0 l/m 1 min 0 min 121 W/m 16,7 km/h (3 Bft)
15.10.2014 16:37 16,9 C 15,0 C 72 % 1006,2 hPa 0,0 l/m 0 min 0 min 116 W/m 14,6 km/h (3 Bft)
15.10.2014 16:38 16,9 C 15,0 C 72 % 1006,2 hPa 0,0 l/m 0 min 0 min 114 W/m 12,6 km/h (3 Bft)
15.10.2014 16:39 16,9 C 15,0 C 73 % 1006,2 hPa 0,0 l/m 0 min 0 min 113 W/m 10,5 km/h (2 Bft)
15.10.2014 16:40 16,9 C 15,0 C 73 % 1006,2 hPa 0,0 l/m 0 min 0 min 113 W/m 8,4 km/h (2 Bft)
15.10.2014 16:41 16,9 C 15,0 C 73 % 1006,3 hPa 0,0 l/m 0 min 0 min 113 W/m 6,3 km/h (2 Bft)
15.10.2014 16:42 16,9 C 15,0 C 73 % 1006,3 hPa 0,0 l/m 0 min 0 min 111 W/m 6,3 km/h (2 Bft)
15.10.2014 16:43 16,9 C 15,0 C 73 % 1006,3 hPa 0,0 l/m 0 min 0 min 104 W/m 6,3 km/h (2 Bft)
15.10.2014 16:44 16,9 C 15,0 C 73 % 1006,2 hPa 0,0 l/m 0 min 0 min 93 W/m 8,4 km/h (2 Bft)
15.10.2014 16:45 16,9 C 15,0 C 73 % 1006,2 hPa 0,0 l/m 0 min 0 min 83 W/m 6,3 km/h (2 Bft)
15.10.2014 16:46 16,9 C 15,0 C 74 % 1006,2 hPa 0,0 l/m 0 min 0 min 73 W/m 6,3 km/h (2 Bft)
15.10.2014 16:47 16,9 C 15,0 C 74 % 1006,2 hPa 0,0 l/m 0 min 0 min 65 W/m 10,5 km/h (2 Bft)
15.10.2014 16:48 16,9 C 15,0 C 74 % 1006,2 hPa 0,0 l/m 0 min 0 min 60 W/m 8,4 km/h (2 Bft)
15.10.2014 16:49 16,9 C 15,0 C 74 % 1006,2 hPa 0,0 l/m 0 min 0 min 51 W/m 10,5 km/h (2 Bft)
15.10.2014 16:50 16,9 C 15,0 C 74 % 1006,3 hPa 0,0 l/m 0 min 0 min 49 W/m 12,6 km/h (3 Bft)
15.10.2014 16:51 16,8 C 15,0 C 74 % 1006,2 hPa 0,0 l/m 0 min 0 min 42 W/m 8,4 km/h (2 Bft)
15.10.2014 16:52 16,9 C 15,0 C 74 % 1006,2 hPa 0,0 l/m 0 min 0 min 43 W/m 2,1 km/h (1 Bft)
15.10.2014 16:53 16,8 C 15,0 C 74 % 1006,2 hPa 0,0 l/m 0 min 0 min 58 W/m 4,2 km/h (1 Bft)
15.10.2014 16:54 16,8 C 15,0 C 74 % 1006,2 hPa 0,0 l/m 0 min 0 min 63 W/m 8,4 km/h (2 Bft)
15.10.2014 16:55 16,8 C 15,0 C 74 % 1006,2 hPa 0,0 l/m 0 min 0 min 67 W/m 8,4 km/h (2 Bft)
15.10.2014 16:56 16,8 C 14,4 C 74 % 1006,2 hPa 0,0 l/m 0 min 0 min 67 W/m 10,5 km/h (2 Bft)
15.10.2014 16:57 16,8 C 14,4 C 74 % 1006,2 hPa 0,0 l/m 0 min 0 min 62 W/m 8,4 km/h (2 Bft)
15.10.2014 16:58 16,8 C 14,4 C 74 % 1006,2 hPa 0,0 l/m 0 min 0 min 62 W/m 10,5 km/h (2 Bft)
15.10.2014 16:59 16,8 C 14,4 C 74 % 1006,2 hPa 0,0 l/m 0 min 0 min 67 W/m 8,4 km/h (2 Bft)
15.10.2014 17:00 16,7 C 14,4 C 74 % 1006,2 hPa 0,0 l/m 0 min 0 min 70 W/m 6,3 km/h (2 Bft)
15.10.2014 17:01 16,7 C 14,4 C 74 % 1006,2 hPa 0,0 l/m 0 min 0 min 77 W/m 6,3 km/h (2 Bft)
15.10.2014 17:02 16,7 C 14,4 C 74 % 1006,2 hPa 0,0 l/m 0 min 0 min 81 W/m 6,3 km/h (2 Bft)
15.10.2014 17:03 16,7 C 14,4 C 74 % 1006,2 hPa 0,0 l/m 0 min 0 min 84 W/m 8,4 km/h (2 Bft)
15.10.2014 17:04 16,7 C 14,4 C 74 % 1006,2 hPa 0,0 l/m 0 min 0 min 79 W/m 8,4 km/h (2 Bft)
15.10.2014 17:06 16,6 C 14,4 C 75 % 1006,2 hPa 0,0 l/m 0 min 0 min 64 W/m 4,2 km/h (1 Bft)
15.10.2014 17:08 16,6 C 14,4 C 75 % 1006,2 hPa 0,0 l/m 0 min 0 min 45 W/m 6,3 km/h (2 Bft)
15.10.2014 17:10 16,6 C 14,4 C 75 % 1006,2 hPa 0,0 l/m 0 min 0 min 32 W/m 6,3 km/h (2 Bft)
15.10.2014 17:12 16,6 C 14,4 C 75 % 1006,2 hPa 0,0 l/m 0 min 0 min 32 W/m 6,3 km/h (2 Bft)
15.10.2014 17:14 16,6 C 14,4 C 75 % 1006,2 hPa 0,0 l/m 0 min 0 min 39 W/m 8,4 km/h (2 Bft)
15.10.2014 17:16 16,5 C 14,4 C 75 % 1006,2 hPa 0,0 l/m 0 min 0 min 38 W/m 6,3 km/h (2 Bft)
15.10.2014 17:18 16,5 C 14,4 C 75 % 1006,2 hPa 0,0 l/m 0 min 0 min 30 W/m 6,3 km/h (2 Bft)
15.10.2014 17:20 16,5 C 14,4 C 75 % 1006,2 hPa 0,0 l/m 0 min 0 min 28 W/m 6,3 km/h (2 Bft)
15.10.2014 17:22 16,4 C 14,4 C 75 % 1006,2 hPa 0,0 l/m 0 min 0 min 30 W/m 2,1 km/h (1 Bft)
15.10.2014 17:24 16,4 C 14,4 C 75 % 1006,2 hPa 0,0 l/m 0 min 0 min 30 W/m 2,1 km/h (1 Bft)
15.10.2014 17:26 16,4 C 14,4 C 75 % 1006,2 hPa 0,0 l/m 0 min 0 min 32 W/m 4,2 km/h (1 Bft)
15.10.2014 17:28 16,4 C 13,9 C 75 % 1006,2 hPa 0,0 l/m 0 min 0 min 32 W/m 4,2 km/h (1 Bft)
15.10.2014 17:30 16,4 C 13,9 C 75 % 1006,2 hPa 0,0 l/m 0 min 0 min 32 W/m 6,3 km/h (2 Bft)
15.10.2014 17:32 16,3 C 13,9 C 76 % 1006,3 hPa 0,0 l/m 0 min 0 min 33 W/m 6,3 km/h (2 Bft)
15.10.2014 17:34 16,3 C 13,9 C 76 % 1006,2 hPa 0,0 l/m 0 min 0 min 33 W/m 4,2 km/h (1 Bft)
15.10.2014 17:36 16,3 C 13,9 C 76 % 1006,1 hPa 0,0 l/m 0 min 0 min 34 W/m 4,2 km/h (1 Bft)
15.10.2014 17:38 16,3 C 13,9 C 76 % 1006,2 hPa 0,0 l/m 0 min 0 min 33 W/m 4,2 km/h (1 Bft)
15.10.2014 17:40 16,3 C 13,9 C 76 % 1006,2 hPa 0,0 l/m 0 min 0 min 33 W/m 4,2 km/h (1 Bft)
15.10.2014 17:42 16,3 C 13,9 C 76 % 1006,2 hPa 0,0 l/m 0 min 0 min 34 W/m 4,2 km/h (1 Bft)
15.10.2014 17:44 16,3 C 13,9 C 77 % 1006,2 hPa 0,0 l/m 0 min 0 min 33 W/m 2,1 km/h (1 Bft)
15.10.2014 17:46 16,2 C 13,9 C 77 % 1006,2 hPa 0,0 l/m 0 min 0 min 34 W/m 4,2 km/h (1 Bft)
15.10.2014 17:48 16,2 C 13,9 C 77 % 1006,1 hPa 0,0 l/m 0 min 0 min 36 W/m 4,2 km/h (1 Bft)
15.10.2014 17:50 16,2 C 13,9 C 77 % 1006,1 hPa 0,0 l/m 0 min 0 min 38 W/m 4,2 km/h (1 Bft)
15.10.2014 17:52 16,2 C 13,9 C 77 % 1006,1 hPa 0,0 l/m 0 min 0 min 38 W/m 4,2 km/h (1 Bft)
15.10.2014 17:54 16,2 C 13,9 C 77 % 1006,1 hPa 0,0 l/m 0 min 0 min 37 W/m 4,2 km/h (1 Bft)
15.10.2014 17:56 16,2 C 13,9 C 77 % 1006,1 hPa 0,0 l/m 0 min 0 min 39 W/m 4,2 km/h (1 Bft)
15.10.2014 17:58 16,1 C 13,9 C 77 % 1006,2 hPa 0,0 l/m 0 min 0 min 39 W/m 2,1 km/h (1 Bft)
15.10.2014 18:00 16,1 C 13,3 C 77 % 1006,2 hPa 0,0 l/m 0 min 0 min 38 W/m 6,3 km/h (2 Bft)
15.10.2014 18:02 16,1 C 13,3 C 77 % 1006,2 hPa 0,0 l/m 0 min 0 min 34 W/m 4,2 km/h (1 Bft)
15.10.2014 18:05 16,1 C 13,3 C 77 % 1006,2 hPa 0,0 l/m 0 min 0 min 32 W/m 4,2 km/h (1 Bft)
15.10.2014 18:06 16,0 C 13,3 C 77 % 1006,2 hPa 0,0 l/m 0 min 0 min 29 W/m 2,1 km/h (1 Bft)
15.10.2014 18:08 16,0 C 13,3 C 77 % 1006,2 hPa 0,0 l/m 0 min 0 min 27 W/m 6,3 km/h (2 Bft)
15.10.2014 18:10 16,0 C 13,3 C 77 % 1006,2 hPa 0,0 l/m 0 min 0 min 26 W/m 6,3 km/h (2 Bft)
15.10.2014 18:12 15,9 C 12,8 C 77 % 1006,1 hPa 0,0 l/m 0 min 0 min 26 W/m 4,2 km/h (1 Bft)
15.10.2014 18:14 15,9 C 12,8 C 77 % 1006,1 hPa 0,0 l/m 2 min 0 min 26 W/m 2,1 km/h (1 Bft)
15.10.2014 18:16 15,9 C 12,8 C 77 % 1006,1 hPa 0,0 l/m 2 min 0 min 28 W/m 4,2 km/h (1 Bft)
15.10.2014 18:18 15,8 C 12,8 C 77 % 1006,1 hPa 0,0 l/m 2 min 0 min 27 W/m 4,2 km/h (1 Bft)
15.10.2014 18:20 15,8 C 12,8 C 77 % 1006,2 hPa 0,0 l/m 2 min 0 min 24 W/m 2,1 km/h (1 Bft)
15.10.2014 18:22 15,8 C 12,8 C 77 % 1006,2 hPa 0,0 l/m 2 min 0 min 19 W/m 2,1 km/h (1 Bft)
15.10.2014 18:24 15,8 C 12,8 C 77 % 1006,2 hPa 0,0 l/m 2 min 0 min 14 W/m 4,2 km/h (1 Bft)
15.10.2014 18:26 15,7 C 12,8 C 77 % 1006,2 hPa 0,0 l/m 0 min 0 min 12 W/m 4,2 km/h (1 Bft)
15.10.2014 18:28 15,7 C 12,8 C 78 % 1006,2 hPa 0,0 l/m 0 min 0 min 10 W/m 6,3 km/h (2 Bft)
15.10.2014 18:30 15,7 C 12,8 C 77 % 1006,1 hPa 0,0 l/m 0 min 0 min 7 W/m 4,2 km/h (1 Bft)
15.10.2014 18:32 15,6 C 12,8 C 77 % 1006,1 hPa 0,0 l/m 0 min 0 min 7 W/m 4,2 km/h (1 Bft)
15.10.2014 18:34 15,6 C 12,2 C 77 % 1006,1 hPa 0,0 l/m 0 min 0 min 6 W/m 4,2 km/h (1 Bft)
15.10.2014 18:36 15,5 C 12,2 C 78 % 1006,1 hPa 0,0 l/m 0 min 0 min 5 W/m 4,2 km/h (1 Bft)
15.10.2014 18:38 15,5 C 12,2 C 78 % 1006,2 hPa 0,0 l/m 0 min 0 min 5 W/m 4,2 km/h (1 Bft)
15.10.2014 18:40 15,4 C 12,2 C 78 % 1006,2 hPa 0,0 l/m 0 min 0 min 2 W/m 4,2 km/h (1 Bft)
15.10.2014 18:42 15,4 C 12,2 C 78 % 1006,1 hPa 0,0 l/m 0 min 0 min 0 W/m 4,2 km/h (1 Bft)
15.10.2014 18:44 15,3 C 12,2 C 78 % 1006,1 hPa 0,0 l/m 0 min 0 min 0 W/m 2,1 km/h (1 Bft)
15.10.2014 18:46 15,3 C 11,7 C 78 % 1006,1 hPa 0,0 l/m 0 min 0 min 0 W/m 4,2 km/h (1 Bft)
15.10.2014 18:48 15,3 C 11,7 C 78 % 1006,1 hPa 0,0 l/m 0 min 0 min 0 W/m 4,2 km/h (1 Bft)
15.10.2014 18:50 15,2 C 11,7 C 78 % 1006,1 hPa 0,0 l/m 0 min 0 min 0 W/m 2,1 km/h (1 Bft)
15.10.2014 18:52 15,2 C 11,7 C 79 % 1006,1 hPa 0,0 l/m 0 min 0 min 0 W/m 2,1 km/h (1 Bft)
15.10.2014 18:54 15,1 C 11,7 C 79 % 1006,1 hPa 0,0 l/m 0 min 0 min 0 W/m 2,1 km/h (1 Bft)
15.10.2014 18:56 15,1 C 11,7 C 79 % 1006,2 hPa 0,0 l/m 0 min 0 min 0 W/m 2,1 km/h (1 Bft)
15.10.2014 18:58 15,0 C 11,7 C 79 % 1006,1 hPa 0,0 l/m 0 min 0 min 0 W/m 4,2 km/h (1 Bft)
15.10.2014 19:00 14,9 C 11,7 C 79 % 1006,2 hPa 0,0 l/m 0 min 0 min 0 W/m 4,2 km/h (1 Bft)
15.10.2014 19:02 14,9 C 11,7 C 79 % 1006,1 hPa 0,0 l/m 0 min 0 min 0 W/m 4,2 km/h (1 Bft)
15.10.2014 19:04 14,8 C 11,1 C 79 % 1006,1 hPa 0,0 l/m 0 min 0 min 0 W/m 4,2 km/h (1 Bft)
15.10.2014 19:06 14,8 C 11,1 C 80 % 1006,2 hPa 0,0 l/m 0 min 0 min 0 W/m 4,2 km/h (1 Bft)
15.10.2014 19:08 14,8 C 11,1 C 80 % 1006,2 hPa 0,0 l/m 0 min 0 min 0 W/m 6,3 km/h (2 Bft)
15.10.2014 19:10 14,7 C 11,7 C 80 % 1006,1 hPa 0,0 l/m 0 min 0 min 0 W/m 6,3 km/h (2 Bft)
15.10.2014 19:12 14,7 C 11,7 C 81 % 1006,1 hPa 0,0 l/m 0 min 0 min 0 W/m 6,3 km/h (2 Bft)
15.10.2014 19:14 14,6 C 11,7 C 81 % 1006,2 hPa 0,0 l/m 0 min 0 min 0 W/m 4,2 km/h (1 Bft)
15.10.2014 19:16 14,6 C 11,7 C 81 % 1006,1 hPa 0,0 l/m 0 min 0 min 0 W/m 4,2 km/h (1 Bft)
15.10.2014 19:18 14,5 C 11,7 C 81 % 1006,1 hPa 0,0 l/m 0 min 0 min 0 W/m 4,2 km/h (1 Bft)
15.10.2014 19:20 14,4 C 11,7 C 81 % 1006,1 hPa 0,0 l/m 0 min 0 min 0 W/m 4,2 km/h (1 Bft)
15.10.2014 19:22 14,4 C 11,1 C 82 % 1006,1 hPa 0,0 l/m 0 min 0 min 0 W/m 4,2 km/h (1 Bft)
15.10.2014 19:24 14,3 C 11,7 C 82 % 1006,1 hPa 0,0 l/m 0 min 0 min 0 W/m 4,2 km/h (1 Bft)
15.10.2014 19:26 14,3 C 11,1 C 82 % 1006,1 hPa 0,0 l/m 0 min 0 min 0 W/m 4,2 km/h (1 Bft)
15.10.2014 19:28 14,2 C 11,1 C 82 % 1006,1 hPa 0,0 l/m 0 min 0 min 0 W/m 4,2 km/h (1 Bft)
15.10.2014 19:30 14,2 C 11,1 C 83 % 1006,1 hPa 0,0 l/m 0 min 0 min 0 W/m 4,2 km/h (1 Bft)
15.10.2014 19:32 14,2 C 11,1 C 83 % 1006,1 hPa 0,0 l/m 0 min 0 min 0 W/m 4,2 km/h (1 Bft)
15.10.2014 19:34 14,2 C 11,1 C 83 % 1006,1 hPa 0,0 l/m 0 min 0 min 0 W/m 6,3 km/h (2 Bft)
15.10.2014 19:36 14,2 C 11,1 C 83 % 1006,1 hPa 0,0 l/m 0 min 0 min 0 W/m 6,3 km/h (2 Bft)
15.10.2014 19:38 14,1 C 11,1 C 83 % 1006,1 hPa 0,0 l/m 0 min 0 min 0 W/m 4,2 km/h (1 Bft)
15.10.2014 19:40 14,0 C 11,1 C 83 % 1006,1 hPa 0,0 l/m 0 min 0 min 0 W/m 2,1 km/h (1 Bft)
15.10.2014 19:42 14,0 C 11,1 C 83 % 1006,1 hPa 0,0 l/m 0 min 0 min 0 W/m 4,2 km/h (1 Bft)
15.10.2014 19:44 13,9 C 11,1 C 83 % 1006,1 hPa 0,0 l/m 0 min 0 min 0 W/m 4,2 km/h (1 Bft)
15.10.2014 19:46 13,9 C 11,7 C 84 % 1006,2 hPa 0,0 l/m 0 min 0 min 0 W/m 4,2 km/h (1 Bft)
15.10.2014 19:48 13,8 C 11,7 C 84 % 1006,2 hPa 0,0 l/m 0 min 0 min 0 W/m 6,3 km/h (2 Bft)
15.10.2014 19:50 13,8 C 11,7 C 84 % 1006,1 hPa 0,0 l/m 0 min 0 min 0 W/m 6,3 km/h (2 Bft)
15.10.2014 19:52 13,8 C 11,7 C 84 % 1006,1 hPa 0,0 l/m 0 min 0 min 0 W/m 8,4 km/h (2 Bft)
15.10.2014 19:54 13,7 C 11,7 C 84 % 1006,1 hPa 0,0 l/m 0 min 0 min 0 W/m 6,3 km/h (2 Bft)
15.10.2014 19:56 13,7 C 11,7 C 84 % 1006,1 hPa 0,0 l/m 0 min 0 min 0 W/m 4,2 km/h (1 Bft)
15.10.2014 19:58 13,7 C 11,7 C 84 % 1006,1 hPa 0,0 l/m 0 min 0 min 0 W/m 4,2 km/h (1 Bft)
15.10.2014 20:00 13,7 C 11,7 C 85 % 1006,1 hPa 0,0 l/m 0 min 0 min 0 W/m 4,2 km/h (1 Bft)
15.10.2014 20:02 13,6 C 11,7 C 85 % 1006,1 hPa 0,0 l/m 0 min 0 min 0 W/m 4,2 km/h (1 Bft)
15.10.2014 20:04 13,6 C 11,7 C 85 % 1006,1 hPa 0,0 l/m 0 min 0 min 0 W/m 4,2 km/h (1 Bft)
15.10.2014 20:06 13,6 C 11,7 C 85 % 1006,1 hPa 0,0 l/m 0 min 0 min 0 W/m 2,1 km/h (1 Bft)
15.10.2014 20:08 13,6 C 11,7 C 85 % 1006,1 hPa 0,0 l/m 0 min 0 min 0 W/m 2,1 km/h (1 Bft)
15.10.2014 20:10 13,5 C 11,7 C 85 % 1006,1 hPa 0,0 l/m 0 min 0 min 0 W/m 2,1 km/h (1 Bft)
15.10.2014 20:12 13,5 C 11,7 C 85 % 1006,1 hPa 0,0 l/m 0 min 0 min 0 W/m 2,1 km/h (1 Bft)
15.10.2014 20:14 13,5 C 11,7 C 85 % 1006,1 hPa 0,0 l/m 0 min 0 min 0 W/m 4,2 km/h (1 Bft)
15.10.2014 20:16 13,5 C 11,7 C 86 % 1006,1 hPa 0,0 l/m 0 min 0 min 0 W/m 2,1 km/h (1 Bft)
15.10.2014 20:18 13,4 C 11,7 C 86 % 1006,1 hPa 0,0 l/m 0 min 0 min 0 W/m 4,2 km/h (1 Bft)
15.10.2014 20:20 13,4 C 11,7 C 86 % 1006,1 hPa 0,0 l/m 0 min 0 min 0 W/m 4,2 km/h (1 Bft)
15.10.2014 20:22 13,4 C 11,7 C 86 % 1006,1 hPa 0,0 l/m 0 min 0 min 0 W/m 4,2 km/h (1 Bft)
15.10.2014 20:24 13,4 C 11,7 C 86 % 1006,1 hPa 0,0 l/m 0 min 0 min 0 W/m 4,2 km/h (1 Bft)
15.10.2014 20:26 13,4 C 11,7 C 86 % 1006,1 hPa 0,0 l/m 0 min 0 min 0 W/m 4,2 km/h (1 Bft)
15.10.2014 20:28 13,4 C 11,7 C 86 % 1006,1 hPa 0,0 l/m 0 min 0 min 0 W/m 2,1 km/h (1 Bft)
15.10.2014 20:30 13,4 C 11,7 C 86 % 1006,1 hPa 0,0 l/m 0 min 0 min 0 W/m 4,2 km/h (1 Bft)
15.10.2014 20:32 13,4 C 11,7 C 87 % 1006,1 hPa 0,0 l/m 0 min 0 min 0 W/m 4,2 km/h (1 Bft)
15.10.2014 20:34 13,4 C 11,7 C 87 % 1006,1 hPa 0,0 l/m 0 min 0 min 0 W/m 4,2 km/h (1 Bft)
15.10.2014 20:36 13,4 C 11,7 C 87 % 1006,1 hPa 0,0 l/m 0 min 0 min 0 W/m 2,1 km/h (1 Bft)
15.10.2014 20:38 13,4 C 11,7 C 87 % 1006,2 hPa 0,0 l/m 0 min 0 min 0 W/m 4,2 km/h (1 Bft)
15.10.2014 20:40 13,3 C 11,7 C 87 % 1006,1 hPa 0,0 l/m 0 min 0 min 0 W/m 2,1 km/h (1 Bft)
15.10.2014 20:42 13,3 C 11,7 C 87 % 1006,1 hPa 0,0 l/m 0 min 0 min 0 W/m 4,2 km/h (1 Bft)
15.10.2014 20:44 13,3 C 11,7 C 87 % 1006,1 hPa 0,0 l/m 0 min 0 min 0 W/m 4,2 km/h (1 Bft)
15.10.2014 20:46 13,3 C 11,7 C 87 % 1006,1 hPa 0,0 l/m 0 min 0 min 0 W/m 4,2 km/h (1 Bft)
15.10.2014 20:48 13,3 C 11,7 C 87 % 1006,1 hPa 0,0 l/m 0 min 0 min 0 W/m 4,2 km/h (1 Bft)
15.10.2014 20:50 13,3 C 11,7 C 87 % 1006,1 hPa 0,0 l/m 0 min 0 min 0 W/m 6,3 km/h (2 Bft)
15.10.2014 20:52 13,3 C 11,7 C 87 % 1006,1 hPa 0,0 l/m 0 min 0 min 0 W/m 4,2 km/h (1 Bft)
15.10.2014 20:54 13,3 C 11,7 C 87 % 1006,1 hPa 0,0 l/m 0 min 0 min 0 W/m 4,2 km/h (1 Bft)
15.10.2014 20:56 13,3 C 11,7 C 88 % 1006,2 hPa 0,0 l/m 0 min 0 min 0 W/m 4,2 km/h (1 Bft)
15.10.2014 20:58 13,3 C 11,7 C 88 % 1006,2 hPa 0,0 l/m 0 min 0 min 0 W/m 4,2 km/h (1 Bft)
15.10.2014 21:00 13,3 C 11,7 C 88 % 1006,1 hPa 0,0 l/m 0 min 0 min 0 W/m 4,2 km/h (1 Bft)
15.10.2014 21:02 13,3 C 11,7 C 88 % 1006,1 hPa 0,0 l/m 0 min 0 min 0 W/m 6,3 km/h (2 Bft)
15.10.2014 21:04 13,3 C 11,7 C 88 % 1006,2 hPa 0,0 l/m 0 min 0 min 0 W/m 4,2 km/h (1 Bft)
15.10.2014 21:06 13,3 C 11,7 C 88 % 1006,1 hPa 0,0 l/m 0 min 0 min 0 W/m 4,2 km/h (1 Bft)
15.10.2014 21:08 13,3 C 11,7 C 88 % 1006,1 hPa 0,0 l/m 0 min 0 min 0 W/m 4,2 km/h (1 Bft)
15.10.2014 21:10 13,2 C 11,7 C 88 % 1006,1 hPa 0,0 l/m 0 min 2 min 0 W/m 4,2 km/h (1 Bft)
15.10.2014 21:12 13,3 C 11,7 C 88 % 1006,1 hPa 0,0 l/m 0 min 2 min 0 W/m 4,2 km/h (1 Bft)
15.10.2014 21:14 13,2 C 11,7 C 88 % 1006,1 hPa 0,0 l/m 0 min 2 min 0 W/m 6,3 km/h (2 Bft)
15.10.2014 21:16 13,2 C 11,7 C 88 % 1006,2 hPa 0,0 l/m 0 min 2 min 0 W/m 8,4 km/h (2 Bft)
15.10.2014 21:18 13,2 C 11,7 C 88 % 1006,1 hPa 0,0 l/m 0 min 2 min 0 W/m 6,3 km/h (2 Bft)
15.10.2014 21:20 13,2 C 11,7 C 89 % 1006,1 hPa 0,0 l/m 0 min 2 min 0 W/m 4,2 km/h (1 Bft)
15.10.2014 21:22 13,2 C 11,7 C 89 % 1006,2 hPa 0,0 l/m 0 min 2 min 0 W/m 4,2 km/h (1 Bft)
15.10.2014 21:24 13,2 C 11,7 C 89 % 1006,1 hPa 0,0 l/m 0 min 2 min 0 W/m 8,4 km/h (2 Bft)
15.10.2014 21:26 13,2 C 11,1 C 89 % 1006,1 hPa 0,0 l/m 0 min 2 min 0 W/m 6,3 km/h (2 Bft)
15.10.2014 21:28 13,2 C 11,1 C 89 % 1006,1 hPa 0,0 l/m 0 min 2 min 0 W/m 4,2 km/h (1 Bft)
15.10.2014 21:30 13,2 C 11,7 C 89 % 1006,2 hPa 0,0 l/m 0 min 2 min 0 W/m 4,2 km/h (1 Bft)
15.10.2014 21:32 13,2 C 11,7 C 89 % 1006,1 hPa 0,0 l/m 0 min 2 min 0 W/m 4,2 km/h (1 Bft)
15.10.2014 21:34 13,3 C 11,7 C 89 % 1006,1 hPa 0,0 l/m 0 min 2 min 0 W/m 6,3 km/h (2 Bft)
15.10.2014 21:36 13,3 C 11,1 C 89 % 1006,1 hPa 0,0 l/m 0 min 2 min 0 W/m 4,2 km/h (1 Bft)
15.10.2014 21:38 13,3 C 11,1 C 89 % 1006,1 hPa 0,0 l/m 0 min 2 min 0 W/m 6,3 km/h (2 Bft)
15.10.2014 21:40 13,3 C 11,7 C 89 % 1006,1 hPa 0,0 l/m 0 min 2 min 0 W/m 6,3 km/h (2 Bft)
15.10.2014 21:42 13,3 C 11,7 C 89 % 1006,1 hPa 0,0 l/m 0 min 2 min 0 W/m 6,3 km/h (2 Bft)
15.10.2014 21:44 13,3 C 11,7 C 89 % 1006,1 hPa 0,0 l/m 0 min 0 min 0 W/m 6,3 km/h (2 Bft)
15.10.2014 21:46 13,3 C 11,7 C 89 % 1006,1 hPa 0,0 l/m 0 min 2 min 0 W/m 4,2 km/h (1 Bft)
15.10.2014 21:48 13,3 C 11,7 C 89 % 1006,2 hPa 0,0 l/m 0 min 2 min 0 W/m 4,2 km/h (1 Bft)
15.10.2014 21:50 13,3 C 11,7 C 89 % 1006,1 hPa 0,0 l/m 0 min 2 min 0 W/m 4,2 km/h (1 Bft)
15.10.2014 21:52 13,3 C 11,7 C 89 % 1006,2 hPa 0,0 l/m 0 min 2 min 0 W/m 4,2 km/h (1 Bft)
15.10.2014 21:54 13,3 C 11,7 C 90 % 1006,2 hPa 0,0 l/m 0 min 2 min 0 W/m 4,2 km/h (1 Bft)
15.10.2014 21:56 13,3 C 11,7 C 90 % 1006,1 hPa 0,0 l/m 0 min 0 min 0 W/m 2,1 km/h (1 Bft)
15.10.2014 21:58 13,3 C 11,7 C 90 % 1006,2 hPa 0,0 l/m 0 min 0 min 0 W/m 4,2 km/h (1 Bft)
15.10.2014 22:00 13,3 C 11,7 C 90 % 1006,1 hPa 0,0 l/m 0 min 0 min 0 W/m 6,3 km/h (2 Bft)
15.10.2014 22:02 13,3 C 11,7 C 90 % 1006,2 hPa 0,0 l/m 0 min 2 min 0 W/m 4,2 km/h (1 Bft)
15.10.2014 22:04 13,3 C 11,7 C 90 % 1006,2 hPa 0,0 l/m 0 min 2 min 0 W/m 4,2 km/h (1 Bft)
15.10.2014 22:06 13,3 C 11,7 C 90 % 1006,2 hPa 0,0 l/m 0 min 2 min 0 W/m 2,1 km/h (1 Bft)
15.10.2014 22:08 13,3 C 11,7 C 90 % 1006,1 hPa 0,0 l/m 0 min 2 min 0 W/m 2,1 km/h (1 Bft)
15.10.2014 22:10 13,3 C 11,7 C 90 % 1006,2 hPa 0,0 l/m 0 min 2 min 0 W/m 2,1 km/h (1 Bft)
15.10.2014 22:12 13,3 C 11,7 C 90 % 1006,2 hPa 0,0 l/m 0 min 2 min 0 W/m 2,1 km/h (1 Bft)
15.10.2014 22:14 13,2 C 11,7 C 90 % 1006,3 hPa 0,0 l/m 0 min 2 min 0 W/m 4,2 km/h (1 Bft)
15.10.2014 22:16 13,2 C 11,7 C 90 % 1006,2 hPa 0,0 l/m 0 min 2 min 0 W/m 4,2 km/h (1 Bft)
15.10.2014 22:18 13,2 C 11,7 C 90 % 1006,3 hPa 0,2 l/m 0 min 2 min 0 W/m 4,2 km/h (1 Bft)
15.10.2014 22:20 13,2 C 11,7 C 90 % 1006,2 hPa 0,0 l/m 0 min 2 min 0 W/m 4,2 km/h (1 Bft)
15.10.2014 22:22 13,2 C 11,7 C 90 % 1006,2 hPa 0,0 l/m 0 min 2 min 0 W/m 4,2 km/h (1 Bft)
15.10.2014 22:24 13,3 C 11,1 C 90 % 1006,2 hPa 0,0 l/m 0 min 2 min 0 W/m 4,2 km/h (1 Bft)
15.10.2014 22:26 13,3 C 11,1 C 90 % 1006,2 hPa 0,0 l/m 0 min 2 min 0 W/m 4,2 km/h (1 Bft)
15.10.2014 22:28 13,3 C 11,1 C 91 % 1006,2 hPa 0,0 l/m 0 min 2 min 0 W/m 4,2 km/h (1 Bft)
15.10.2014 22:30 13,3 C 11,1 C 91 % 1006,2 hPa 0,0 l/m 0 min 2 min 0 W/m 4,2 km/h (1 Bft)
15.10.2014 22:32 13,3 C 11,1 C 91 % 1006,2 hPa 0,2 l/m 0 min 2 min 0 W/m 4,2 km/h (1 Bft)
15.10.2014 22:34 13,3 C 11,1 C 91 % 1006,3 hPa 0,0 l/m 0 min 2 min 0 W/m 4,2 km/h (1 Bft)
15.10.2014 22:36 13,3 C 11,1 C 91 % 1006,2 hPa 0,0 l/m 0 min 2 min 0 W/m 4,2 km/h (1 Bft)
15.10.2014 22:38 13,3 C 11,1 C 91 % 1006,2 hPa 0,0 l/m 0 min 2 min 0 W/m 4,2 km/h (1 Bft)
15.10.2014 22:40 13,3 C 11,1 C 91 % 1006,2 hPa 0,0 l/m 0 min 2 min 0 W/m 4,2 km/h (1 Bft)
15.10.2014 22:42 13,3 C 11,1 C 92 % 1006,2 hPa 0,0 l/m 0 min 2 min 0 W/m 4,2 km/h (1 Bft)
15.10.2014 22:44 13,2 C 11,1 C 92 % 1006,1 hPa 0,0 l/m 0 min 2 min 0 W/m 4,2 km/h (1 Bft)
15.10.2014 22:46 13,2 C 11,1 C 92 % 1006,1 hPa 0,0 l/m 0 min 2 min 0 W/m 4,2 km/h (1 Bft)
15.10.2014 22:48 13,2 C 11,1 C 92 % 1006,1 hPa 0,0 l/m 0 min 2 min 0 W/m 4,2 km/h (1 Bft)
15.10.2014 22:50 13,2 C 11,1 C 92 % 1006,1 hPa 0,0 l/m 0 min 2 min 0 W/m 4,2 km/h (1 Bft)
15.10.2014 22:52 13,2 C 11,1 C 92 % 1006,1 hPa 0,0 l/m 0 min 2 min 0 W/m 2,1 km/h (1 Bft)
15.10.2014 22:54 13,2 C 11,1 C 92 % 1006,1 hPa 0,0 l/m 0 min 2 min 0 W/m 4,2 km/h (1 Bft)
15.10.2014 22:56 13,2 C 11,1 C 92 % 1006,1 hPa 0,0 l/m 0 min 2 min 0 W/m 4,2 km/h (1 Bft)
15.10.2014 22:58 13,1 C 11,1 C 92 % 1006,1 hPa 0,0 l/m 0 min 2 min 0 W/m 4,2 km/h (1 Bft)
15.10.2014 23:00 13,1 C 11,1 C 92 % 1006,1 hPa 0,0 l/m 0 min 2 min 0 W/m 6,3 km/h (2 Bft)
15.10.2014 23:02 13,1 C 11,1 C 92 % 1006,0 hPa 0,0 l/m 0 min 2 min 0 W/m 4,2 km/h (1 Bft)
15.10.2014 23:04 13,1 C 11,1 C 92 % 1006,0 hPa 0,0 l/m 0 min 2 min 0 W/m 4,2 km/h (1 Bft)
15.10.2014 23:06 13,1 C 11,1 C 92 % 1006,0 hPa 0,0 l/m 0 min 2 min 0 W/m 4,2 km/h (1 Bft)
15.10.2014 23:08 13,1 C 11,1 C 92 % 1006,0 hPa 0,0 l/m 0 min 2 min 0 W/m 4,2 km/h (1 Bft)
15.10.2014 23:10 13,0 C 11,1 C 93 % 1006,0 hPa 0,0 l/m 0 min 2 min 0 W/m 4,2 km/h (1 Bft)
15.10.2014 23:12 13,0 C 11,1 C 93 % 1006,0 hPa 0,0 l/m 0 min 2 min 0 W/m 4,2 km/h (1 Bft)
15.10.2014 23:14 13,0 C 11,1 C 93 % 1006,0 hPa 0,0 l/m 0 min 2 min 0 W/m 4,2 km/h (1 Bft)
15.10.2014 23:16 12,9 C 11,1 C 93 % 1006,0 hPa 0,0 l/m 0 min 2 min 0 W/m 4,2 km/h (1 Bft)
15.10.2014 23:18 12,9 C 11,1 C 93 % 1006,0 hPa 0,0 l/m 0 min 2 min 0 W/m 6,3 km/h (2 Bft)
15.10.2014 23:20 12,9 C 11,1 C 93 % 1006,0 hPa 0,0 l/m 0 min 2 min 0 W/m 4,2 km/h (1 Bft)
15.10.2014 23:22 12,9 C 11,1 C 93 % 1006,0 hPa 0,0 l/m 0 min 2 min 0 W/m 4,2 km/h (1 Bft)
15.10.2014 23:24 12,9 C 11,1 C 93 % 1006,0 hPa 0,2 l/m 0 min 2 min 0 W/m 4,2 km/h (1 Bft)
15.10.2014 23:26 12,9 C 11,1 C 93 % 1005,9 hPa 0,0 l/m 0 min 2 min 0 W/m 4,2 km/h (1 Bft)
15.10.2014 23:28 12,9 C 11,1 C 93 % 1005,9 hPa 0,0 l/m 0 min 2 min 0 W/m 4,2 km/h (1 Bft)
15.10.2014 23:30 12,9 C 11,1 C 93 % 1005,9 hPa 0,0 l/m 0 min 2 min 0 W/m 4,2 km/h (1 Bft)
15.10.2014 23:32 12,8 C 11,1 C 93 % 1005,9 hPa 0,0 l/m 0 min 2 min 0 W/m 2,1 km/h (1 Bft)
15.10.2014 23:34 12,8 C 11,1 C 93 % 1006,0 hPa 0,0 l/m 0 min 2 min 0 W/m 4,2 km/h (1 Bft)
15.10.2014 23:36 12,8 C 11,1 C 93 % 1006,0 hPa 0,0 l/m 0 min 2 min 0 W/m 4,2 km/h (1 Bft)
15.10.2014 23:38 12,8 C 11,1 C 93 % 1006,0 hPa 0,0 l/m 0 min 2 min 0 W/m 2,1 km/h (1 Bft)
15.10.2014 23:40 12,8 C 11,1 C 93 % 1005,9 hPa 0,2 l/m 0 min 2 min 0 W/m 4,2 km/h (1 Bft)
15.10.2014 23:42 12,8 C 11,1 C 93 % 1005,9 hPa 0,0 l/m 0 min 2 min 0 W/m 4,2 km/h (1 Bft)
15.10.2014 23:44 12,8 C 11,1 C 93 % 1005,8 hPa 0,0 l/m 0 min 2 min 0 W/m 4,2 km/h (1 Bft)
15.10.2014 23:46 12,8 C 11,1 C 94 % 1005,8 hPa 0,0 l/m 0 min 2 min 0 W/m 4,2 km/h (1 Bft)
15.10.2014 23:48 12,7 C 11,1 C 94 % 1005,8 hPa 0,0 l/m 0 min 2 min 0 W/m 4,2 km/h (1 Bft)
15.10.2014 23:50 12,7 C 11,1 C 94 % 1005,8 hPa 0,0 l/m 0 min 2 min 0 W/m 4,2 km/h (1 Bft)
15.10.2014 23:52 12,7 C 11,1 C 93 % 1005,8 hPa 0,0 l/m 0 min 2 min 0 W/m 4,2 km/h (1 Bft)
15.10.2014 23:54 12,7 C 11,1 C 93 % 1005,7 hPa 0,0 l/m 0 min 2 min 0 W/m 4,2 km/h (1 Bft)
15.10.2014 23:56 12,7 C 11,1 C 94 % 1005,7 hPa 0,0 l/m 0 min 2 min 0 W/m 6,3 km/h (2 Bft)
15.10.2014 23:58 12,7 C 11,1 C 94 % 1005,7 hPa 0,0 l/m 0 min 2 min 0 W/m 6,3 km/h (2 Bft)
_ Min-Zeit 08:46 08:16 14:54 23:54 - - - - 16:52
Minimum _ 11,4 C 10,0 C 71 % 1005,7 hPa - - - - 2,1 km/h (1 Bft)
_ Max-Zeit 13:58 13:46 23:46 00:02 22:18 08:14 21:10 13:50 11:38
Maximum _ 17,5 C 16,1 C 94 % 1007,2 hPa 0,2 l/m 2 min 2 min 690 W/m 33,5 km/h
SW (5 Bft)
Durchschnitt _ 14,2 C 12,6 C 83 % 1006,6 hPa #0,8 l/m #6:42 h #2:42 h 201 W/m 11,8 km/h (2 Bft)
© 2014 W. Hausmann